UAE261 OMDB-SBGR
Flight info
| Callsign | UAE261 |
|---|---|
| Flight time | N/A |
| Altitude | 33000 |
| Route | ANVIX R401 GIDIS G783 UKRAG L710 KUKDI/N0497F340 B400 RIGAM B404 DEMGO UB404 HARGA UM216 ETLOT/N0488F360 UM216 PATAR UN553 NALOS UT136 BUN UH1 KGI UB535 UDRID/N0480F380 UB535 KSA UT417 EBNON UB535 INALO UT417 TETUX DCT 07S005E 08S000W 10S005W 12S010W 14S015W/N0475F400 16S020W 17S025W 18S030W 19S035W DCT UMREP UZ47 MOLSU UN401 SIDUR UZ10 EDMUS |
| Aircraft | A388/J-SADE2E3FGHIJ3J4J5M1RWXY/LB1D1 |
Departure
| Time | 2026-05-05 02:06 |
|---|---|
| Airport | Dubai International Airport (OMDB) |
Arrival
| Time | N/A |
|---|---|
| Airport | São Paulo/Guarulhos–Governor André Franco Montoro International Airport (SBGR) |
| Time | Latitude | Longitude | Altitude | Speed | Heading |
|---|---|---|---|---|---|
| 2026-05-05 01:38 | 25.24930 | 55.36230 | 27 ft | 0 kts | 211° |
| 2026-05-05 01:52 | 25.24931 | 55.36230 | 27 ft | 2 kts | 211° |
| 2026-05-05 01:52 | 25.24953 | 55.36245 | 26 ft | 4 kts | 211° |
| 2026-05-05 01:53 | 25.24973 | 55.36258 | 26 ft | 4 kts | 212° |
| 2026-05-05 01:53 | 25.24990 | 55.36275 | 27 ft | 4 kts | 242° |
| 2026-05-05 01:53 | 25.24993 | 55.36291 | 25 ft | 4 kts | 286° |
| 2026-05-05 01:53 | 25.24981 | 55.36314 | 25 ft | 4 kts | 306° |
| 2026-05-05 01:54 | 25.24971 | 55.36330 | 25 ft | 1 kts | 302° |
| 2026-05-05 02:00 | 25.24993 | 55.36291 | 27 ft | 12 kts | 301° |
| 2026-05-05 02:00 | 25.25047 | 55.36193 | 27 ft | 16 kts | 301° |
| 2026-05-05 02:01 | 25.25107 | 55.36084 | 27 ft | 17 kts | 301° |
| 2026-05-05 02:01 | 25.25171 | 55.35969 | 27 ft | 18 kts | 301° |
| 2026-05-05 02:01 | 25.25237 | 55.35849 | 27 ft | 18 kts | 301° |
| 2026-05-05 02:01 | 25.25305 | 55.35727 | 27 ft | 19 kts | 301° |
| 2026-05-05 02:02 | 25.25370 | 55.35679 | 27 ft | 10 kts | 22° |
| 2026-05-05 02:02 | 25.25416 | 55.35712 | 27 ft | 13 kts | 32° |
| 2026-05-05 02:02 | 25.25473 | 55.35750 | 27 ft | 0 kts | 31° |
| 2026-05-05 02:03 | 25.25480 | 55.35755 | 27 ft | 9 kts | 31° |
| 2026-05-05 02:04 | 25.25575 | 55.35819 | 27 ft | 12 kts | 45° |
| 2026-05-05 02:04 | 25.25576 | 55.35923 | 27 ft | 11 kts | 133° |
| 2026-05-05 02:04 | 25.25568 | 55.35934 | 27 ft | 0 kts | 124° |
| 2026-05-05 02:04 | 25.25532 | 55.35995 | 27 ft | 35 kts | 121° |
| 2026-05-05 02:05 | 25.25270 | 55.36467 | 27 ft | 107 kts | 122° |
| 2026-05-05 02:05 | 25.24781 | 55.37346 | 27 ft | 158 kts | 121° |
| 2026-05-05 02:05 | 25.24146 | 55.38487 | 35 ft | 188 kts | 121° |
| 2026-05-05 02:05 | 25.23468 | 55.39733 | 368 ft | 191 kts | 122° |
| 2026-05-05 02:06 | 25.22784 | 55.40973 | 879 ft | 184 kts | 122° |
| 2026-05-05 02:06 | 25.22115 | 55.42162 | 1383 ft | 183 kts | 121° |
| 2026-05-05 02:06 | 25.21436 | 55.43370 | 1763 ft | 190 kts | 121° |
| 2026-05-05 02:06 | 25.20501 | 55.44451 | 1841 ft | 203 kts | 153° |
| 2026-05-05 02:07 | 25.19114 | 55.44771 | 1932 ft | 212 kts | 187° |
| 2026-05-05 02:07 | 25.17734 | 55.44172 | 2028 ft | 217 kts | 214° |
| 2026-05-05 02:07 | 25.16459 | 55.43257 | 2183 ft | 220 kts | 212° |
| 2026-05-05 02:07 | 25.15158 | 55.42354 | 2340 ft | 221 kts | 216° |
| 2026-05-05 02:08 | 25.14211 | 55.41053 | 2460 ft | 220 kts | 251° |
| 2026-05-05 02:08 | 25.13992 | 55.39404 | 2596 ft | 220 kts | 269° |
| 2026-05-05 02:08 | 25.13931 | 55.37650 | 2677 ft | 237 kts | 269° |
| 2026-05-05 02:08 | 25.13861 | 55.35791 | 2800 ft | 256 kts | 269° |
| 2026-05-05 02:09 | 25.13782 | 55.33771 | 3007 ft | 271 kts | 269° |
| 2026-05-05 02:09 | 25.13697 | 55.31672 | 3473 ft | 274 kts | 269° |
| 2026-05-05 02:09 | 25.13609 | 55.29558 | 3989 ft | 276 kts | 269° |
| 2026-05-05 02:09 | 25.13522 | 55.27431 | 4496 ft | 279 kts | 270° |
| 2026-05-05 02:10 | 25.13435 | 55.25284 | 5030 ft | 280 kts | 270° |
| 2026-05-05 02:10 | 25.13347 | 55.23138 | 5548 ft | 282 kts | 270° |
| 2026-05-05 02:10 | 25.13258 | 55.20962 | 6028 ft | 285 kts | 270° |
| 2026-05-05 02:10 | 25.13169 | 55.18762 | 6508 ft | 289 kts | 270° |
| 2026-05-05 02:11 | 25.13077 | 55.16543 | 7016 ft | 290 kts | 270° |
| 2026-05-05 02:11 | 25.12985 | 55.14316 | 7544 ft | 291 kts | 270° |
| 2026-05-05 02:11 | 25.12892 | 55.12077 | 8046 ft | 293 kts | 270° |
| 2026-05-05 02:11 | 25.12798 | 55.09827 | 8569 ft | 295 kts | 270° |
| 2026-05-05 02:12 | 25.12703 | 55.07561 | 9078 ft | 297 kts | 269° |
| 2026-05-05 02:12 | 25.12511 | 55.02991 | 10086 ft | 300 kts | 269° |
| 2026-05-05 02:12 | 25.12413 | 55.00664 | 10331 ft | 311 kts | 269° |
| 2026-05-05 02:13 | 25.12311 | 54.98219 | 10481 ft | 325 kts | 269° |
| 2026-05-05 02:13 | 25.12204 | 54.95681 | 10593 ft | 338 kts | 269° |
| 2026-05-05 02:13 | 25.12092 | 54.93048 | 10872 ft | 346 kts | 269° |
| 2026-05-05 02:13 | 25.11976 | 54.90387 | 11340 ft | 347 kts | 269° |
| 2026-05-05 02:14 | 25.11861 | 54.87726 | 11835 ft | 349 kts | 269° |
| 2026-05-05 02:14 | 25.11744 | 54.85044 | 12316 ft | 350 kts | 268° |
| 2026-05-05 02:14 | 25.11626 | 54.82349 | 12786 ft | 352 kts | 268° |
| 2026-05-05 02:14 | 25.11508 | 54.79642 | 13289 ft | 353 kts | 268° |
| 2026-05-05 02:15 | 25.11389 | 54.76931 | 13758 ft | 355 kts | 268° |
| 2026-05-05 02:15 | 25.11269 | 54.74209 | 14216 ft | 355 kts | 268° |
| 2026-05-05 02:15 | 25.11150 | 54.71520 | 14696 ft | 356 kts | 268° |
| 2026-05-05 02:15 | 25.11029 | 54.68790 | 15118 ft | 358 kts | 268° |
| 2026-05-05 02:16 | 25.10907 | 54.66038 | 15545 ft | 360 kts | 268° |
| 2026-05-05 02:16 | 25.10783 | 54.63278 | 15982 ft | 361 kts | 267° |
| 2026-05-05 02:16 | 25.10658 | 54.60504 | 16412 ft | 363 kts | 267° |
| 2026-05-05 02:16 | 25.10533 | 54.57723 | 16853 ft | 364 kts | 267° |
| 2026-05-05 02:17 | 25.10406 | 54.54924 | 17282 ft | 366 kts | 267° |
| 2026-05-05 02:17 | 25.10312 | 54.52113 | 17697 ft | 368 kts | 271° |
| 2026-05-05 02:17 | 25.10519 | 54.49295 | 18103 ft | 370 kts | 278° |
| 2026-05-05 02:17 | 25.10955 | 54.46503 | 18466 ft | 371 kts | 279° |
| 2026-05-05 02:18 | 25.11378 | 54.43681 | 18799 ft | 373 kts | 278° |
| 2026-05-05 02:18 | 25.11784 | 54.40904 | 19141 ft | 375 kts | 278° |
| 2026-05-05 02:18 | 25.12206 | 54.37994 | 19481 ft | 377 kts | 278° |
| 2026-05-05 02:18 | 25.12622 | 54.35125 | 19814 ft | 379 kts | 278° |
| 2026-05-05 02:19 | 25.13041 | 54.32238 | 20137 ft | 381 kts | 278° |
| 2026-05-05 02:19 | 25.13461 | 54.29347 | 20462 ft | 383 kts | 278° |
| 2026-05-05 02:19 | 25.13883 | 54.26438 | 20775 ft | 385 kts | 278° |
| 2026-05-05 02:19 | 25.14309 | 54.23508 | 21100 ft | 387 kts | 278° |
| 2026-05-05 02:20 | 25.14735 | 54.20562 | 21407 ft | 390 kts | 278° |
| 2026-05-05 02:20 | 25.15164 | 54.17596 | 21732 ft | 392 kts | 278° |
| 2026-05-05 02:20 | 25.15594 | 54.14621 | 22047 ft | 394 kts | 278° |
| 2026-05-05 02:20 | 25.16026 | 54.11635 | 22358 ft | 396 kts | 278° |
| 2026-05-05 02:21 | 25.16461 | 54.08627 | 22671 ft | 398 kts | 278° |
| 2026-05-05 02:21 | 25.16897 | 54.05615 | 23034 ft | 398 kts | 278° |
| 2026-05-05 02:21 | 25.17333 | 54.02590 | 23321 ft | 400 kts | 278° |
| 2026-05-05 02:21 | 25.17770 | 53.99551 | 23588 ft | 402 kts | 278° |
| 2026-05-05 02:22 | 25.18209 | 53.96497 | 23841 ft | 403 kts | 278° |
| 2026-05-05 02:22 | 25.18649 | 53.93433 | 24113 ft | 404 kts | 278° |
| 2026-05-05 02:22 | 25.19089 | 53.90363 | 24413 ft | 405 kts | 278° |
| 2026-05-05 02:22 | 25.19528 | 53.87292 | 24693 ft | 406 kts | 278° |
| 2026-05-05 02:23 | 25.19964 | 53.84244 | 24969 ft | 407 kts | 278° |
| 2026-05-05 02:23 | 25.20402 | 53.81172 | 25245 ft | 407 kts | 278° |
| 2026-05-05 02:23 | 25.20875 | 53.78070 | 25517 ft | 409 kts | 281° |
| 2026-05-05 02:23 | 25.21560 | 53.75020 | 25798 ft | 410 kts | 283° |
| 2026-05-05 02:24 | 25.22267 | 53.71919 | 26068 ft | 412 kts | 282° |
| 2026-05-05 02:24 | 25.22957 | 53.68848 | 26351 ft | 413 kts | 282° |
| 2026-05-05 02:24 | 25.23644 | 53.65773 | 26662 ft | 413 kts | 282° |
| 2026-05-05 02:24 | 25.24333 | 53.62688 | 26967 ft | 414 kts | 282° |
| 2026-05-05 02:25 | 25.25015 | 53.59635 | 27277 ft | 415 kts | 282° |
| 2026-05-05 02:25 | 25.25709 | 53.56526 | 27605 ft | 417 kts | 282° |
| 2026-05-05 02:25 | 25.26412 | 53.53368 | 27773 ft | 422 kts | 282° |
| 2026-05-05 02:25 | 25.27112 | 53.50225 | 27755 ft | 432 kts | 282° |
| 2026-05-05 02:26 | 25.27835 | 53.46972 | 27758 ft | 441 kts | 282° |
| 2026-05-05 02:26 | 25.28569 | 53.43668 | 27758 ft | 444 kts | 282° |
| 2026-05-05 02:26 | 25.29305 | 53.40354 | 27757 ft | 444 kts | 282° |
| 2026-05-05 02:26 | 25.30040 | 53.37047 | 27757 ft | 443 kts | 282° |
| 2026-05-05 02:27 | 25.30773 | 53.33739 | 27755 ft | 443 kts | 282° |
| 2026-05-05 02:27 | 25.31505 | 53.30428 | 27754 ft | 443 kts | 282° |
| 2026-05-05 02:27 | 25.32236 | 53.27123 | 27755 ft | 443 kts | 282° |
| 2026-05-05 02:27 | 25.32965 | 53.23817 | 27753 ft | 443 kts | 282° |
| 2026-05-05 02:28 | 25.33690 | 53.20502 | 27756 ft | 444 kts | 281° |
| 2026-05-05 02:28 | 25.34158 | 53.17135 | 27757 ft | 443 kts | 274° |
| 2026-05-05 02:28 | 25.34243 | 53.13741 | 27755 ft | 442 kts | 267° |
| 2026-05-05 02:28 | 25.33963 | 53.10360 | 27752 ft | 442 kts | 261° |
| 2026-05-05 02:29 | 25.33398 | 53.07021 | 27752 ft | 442 kts | 259° |
| 2026-05-05 02:29 | 25.32836 | 53.03681 | 27755 ft | 442 kts | 260° |
| 2026-05-05 02:29 | 25.32287 | 53.00338 | 27761 ft | 442 kts | 260° |
| 2026-05-05 02:29 | 25.31739 | 52.97003 | 27755 ft | 441 kts | 260° |
| 2026-05-05 02:30 | 25.31186 | 52.93667 | 27753 ft | 441 kts | 260° |
| 2026-05-05 02:30 | 25.30632 | 52.90345 | 27755 ft | 441 kts | 259° |
| 2026-05-05 02:30 | 25.30074 | 52.87015 | 27755 ft | 441 kts | 259° |
| 2026-05-05 02:30 | 25.29514 | 52.83685 | 27754 ft | 441 kts | 259° |
| 2026-05-05 02:31 | 25.28952 | 52.80348 | 27755 ft | 441 kts | 259° |
| 2026-05-05 02:31 | 25.28390 | 52.77009 | 27755 ft | 441 kts | 259° |
| 2026-05-05 02:31 | 25.27827 | 52.73677 | 27768 ft | 441 kts | 259° |
| 2026-05-05 02:31 | 25.27277 | 52.70349 | 27755 ft | 439 kts | 261° |
| 2026-05-05 02:32 | 25.26964 | 52.66996 | 27755 ft | 439 kts | 267° |
| 2026-05-05 02:32 | 25.26916 | 52.63621 | 27754 ft | 440 kts | 269° |
| 2026-05-05 02:32 | 25.26878 | 52.60240 | 27754 ft | 440 kts | 268° |
| 2026-05-05 02:32 | 25.26825 | 52.56872 | 27753 ft | 440 kts | 268° |
| 2026-05-05 02:33 | 25.26768 | 52.53485 | 27754 ft | 440 kts | 268° |
| 2026-05-05 02:33 | 25.26711 | 52.50107 | 27755 ft | 440 kts | 268° |
| 2026-05-05 02:33 | 25.26655 | 52.46729 | 27755 ft | 441 kts | 268° |
| 2026-05-05 02:33 | 25.26598 | 52.43346 | 27754 ft | 441 kts | 268° |
| 2026-05-05 02:34 | 25.26540 | 52.39959 | 27755 ft | 440 kts | 268° |
| 2026-05-05 02:34 | 25.26483 | 52.36577 | 27755 ft | 440 kts | 268° |
| 2026-05-05 02:34 | 25.26425 | 52.33237 | 27754 ft | 440 kts | 268° |
| 2026-05-05 02:34 | 25.26366 | 52.29856 | 27755 ft | 440 kts | 268° |
| 2026-05-05 02:35 | 25.26306 | 52.26472 | 27755 ft | 441 kts | 268° |
| 2026-05-05 02:35 | 25.26245 | 52.23090 | 27754 ft | 441 kts | 268° |
| 2026-05-05 02:35 | 25.26184 | 52.19705 | 27755 ft | 441 kts | 268° |
| 2026-05-05 02:35 | 25.26121 | 52.16313 | 27755 ft | 441 kts | 268° |
| 2026-05-05 02:36 | 25.26058 | 52.12930 | 27757 ft | 441 kts | 268° |
| 2026-05-05 02:36 | 25.25994 | 52.09546 | 27758 ft | 441 kts | 268° |
| 2026-05-05 02:36 | 25.25929 | 52.06157 | 27758 ft | 441 kts | 268° |
| 2026-05-05 02:36 | 25.25864 | 52.02772 | 27757 ft | 441 kts | 268° |
| 2026-05-05 02:37 | 25.25797 | 51.99389 | 27752 ft | 441 kts | 268° |
| 2026-05-05 02:37 | 25.25730 | 51.95996 | 27752 ft | 441 kts | 268° |
| 2026-05-05 02:37 | 25.25662 | 51.92609 | 27750 ft | 441 kts | 268° |
| 2026-05-05 02:37 | 25.25594 | 51.89219 | 27750 ft | 441 kts | 268° |
| 2026-05-05 02:38 | 25.25524 | 51.85832 | 27748 ft | 441 kts | 268° |
| 2026-05-05 02:38 | 25.25454 | 51.82446 | 27752 ft | 441 kts | 268° |
| 2026-05-05 02:38 | 25.25384 | 51.79062 | 27747 ft | 440 kts | 268° |
| 2026-05-05 02:38 | 25.25312 | 51.75682 | 27748 ft | 439 kts | 268° |
| 2026-05-05 02:39 | 25.25240 | 51.72304 | 27749 ft | 439 kts | 268° |
| 2026-05-05 02:39 | 25.25167 | 51.68934 | 27742 ft | 440 kts | 268° |
| 2026-05-05 02:39 | 25.25093 | 51.65556 | 27743 ft | 440 kts | 268° |
| 2026-05-05 02:39 | 25.25019 | 51.62191 | 27748 ft | 440 kts | 268° |
| 2026-05-05 02:40 | 25.25096 | 51.58797 | 27745 ft | 440 kts | 273° |
| 2026-05-05 02:40 | 25.25310 | 51.55427 | 27753 ft | 441 kts | 272° |
| 2026-05-05 02:40 | 25.25514 | 51.52045 | 27750 ft | 441 kts | 272° |
| 2026-05-05 02:40 | 25.25710 | 51.48674 | 27756 ft | 441 kts | 272° |
| 2026-05-05 02:41 | 25.25904 | 51.45296 | 27750 ft | 441 kts | 272° |
| 2026-05-05 02:41 | 25.26098 | 51.41911 | 27760 ft | 441 kts | 272° |
| 2026-05-05 02:41 | 25.26291 | 51.38537 | 27754 ft | 441 kts | 272° |
| 2026-05-05 02:41 | 25.26484 | 51.35145 | 27759 ft | 441 kts | 272° |
| 2026-05-05 02:42 | 25.26675 | 51.31770 | 27759 ft | 441 kts | 272° |
| 2026-05-05 02:42 | 25.26867 | 51.28387 | 27753 ft | 440 kts | 272° |
| 2026-05-05 02:42 | 25.27029 | 51.25015 | 27756 ft | 440 kts | 269° |
| 2026-05-05 02:42 | 25.26989 | 51.21636 | 27758 ft | 440 kts | 268° |
| 2026-05-05 02:43 | 25.26943 | 51.18298 | 27758 ft | 440 kts | 268° |
| 2026-05-05 02:43 | 25.26906 | 51.14919 | 27761 ft | 440 kts | 268° |
| 2026-05-05 02:43 | 25.26870 | 51.11544 | 27757 ft | 440 kts | 268° |
| 2026-05-05 02:43 | 25.26832 | 51.08162 | 27760 ft | 440 kts | 268° |
| 2026-05-05 02:44 | 25.26793 | 51.04785 | 27760 ft | 440 kts | 268° |
| 2026-05-05 02:44 | 25.26753 | 51.01411 | 27765 ft | 440 kts | 268° |
| 2026-05-05 02:44 | 25.26712 | 50.98037 | 27775 ft | 440 kts | 268° |
| 2026-05-05 02:44 | 25.26669 | 50.94641 | 28039 ft | 443 kts | 268° |
| 2026-05-05 02:45 | 25.26625 | 50.91245 | 28491 ft | 443 kts | 268° |
| 2026-05-05 02:45 | 25.26581 | 50.87844 | 28872 ft | 444 kts | 268° |
| 2026-05-05 02:45 | 25.26536 | 50.84421 | 29233 ft | 446 kts | 268° |
| 2026-05-05 02:45 | 25.26489 | 50.80984 | 29603 ft | 448 kts | 268° |
| 2026-05-05 02:46 | 25.26442 | 50.77534 | 29961 ft | 450 kts | 268° |
| 2026-05-05 02:46 | 25.26394 | 50.74082 | 30268 ft | 451 kts | 268° |
| 2026-05-05 02:46 | 25.26344 | 50.70603 | 30577 ft | 453 kts | 268° |
| 2026-05-05 02:46 | 25.26294 | 50.67111 | 30885 ft | 455 kts | 268° |
| 2026-05-05 02:47 | 25.26243 | 50.63615 | 31198 ft | 457 kts | 268° |
| 2026-05-05 02:47 | 25.26191 | 50.60101 | 31495 ft | 459 kts | 268° |
| 2026-05-05 02:47 | 25.26137 | 50.56569 | 31797 ft | 460 kts | 268° |
| 2026-05-05 02:47 | 25.26083 | 50.53026 | 32104 ft | 462 kts | 268° |
| 2026-05-05 02:48 | 25.26046 | 50.50674 | 32343 ft | 462 kts | 268° |
| 2026-05-05 02:48 | 25.26092 | 50.45925 | 32931 ft | 461 kts | 270° |
| 2026-05-05 02:48 | 25.26158 | 50.43587 | 33238 ft | 460 kts | 270° |
| 2026-05-05 02:48 | 25.26261 | 50.40072 | 33652 ft | 458 kts | 270° |
| 2026-05-05 02:49 | 25.26354 | 50.36564 | 33770 ft | 455 kts | 270° |
| 2026-05-05 02:49 | 25.26510 | 50.29585 | 33781 ft | 454 kts | 269° |
| 2026-05-05 02:50 | 25.26648 | 50.22648 | 33773 ft | 450 kts | 269° |
| 2026-05-05 02:50 | 25.26781 | 50.15718 | 33769 ft | 451 kts | 269° |
| 2026-05-05 02:51 | 25.26912 | 50.08804 | 33776 ft | 450 kts | 269° |
| 2026-05-05 02:51 | 25.27039 | 50.01880 | 33774 ft | 450 kts | 269° |
| 2026-05-05 02:52 | 25.27163 | 49.94972 | 33765 ft | 450 kts | 269° |
| 2026-05-05 02:52 | 25.27284 | 49.88053 | 33767 ft | 450 kts | 269° |
| 2026-05-05 02:53 | 25.27402 | 49.81144 | 33776 ft | 450 kts | 269° |
| 2026-05-05 02:53 | 25.27516 | 49.74224 | 33785 ft | 450 kts | 269° |
| 2026-05-05 02:54 | 25.27627 | 49.67360 | 33798 ft | 450 kts | 269° |
| 2026-05-05 02:54 | 25.27735 | 49.60448 | 33820 ft | 450 kts | 269° |
| 2026-05-05 02:55 | 25.27839 | 49.53549 | 33823 ft | 448 kts | 269° |
| 2026-05-05 02:55 | 25.27774 | 49.46685 | 33817 ft | 445 kts | 264° |
| 2026-05-05 02:56 | 25.27137 | 49.39891 | 33805 ft | 444 kts | 263° |
| 2026-05-05 02:56 | 25.26529 | 49.33119 | 33790 ft | 442 kts | 263° |
| 2026-05-05 02:57 | 25.25917 | 49.26367 | 33789 ft | 441 kts | 263° |
| 2026-05-05 02:57 | 25.25301 | 49.19630 | 33797 ft | 441 kts | 263° |
| 2026-05-05 02:58 | 25.24682 | 49.12905 | 33786 ft | 440 kts | 263° |
| 2026-05-05 02:58 | 25.24059 | 49.06172 | 33793 ft | 440 kts | 263° |
| 2026-05-05 02:59 | 25.23433 | 48.99438 | 33790 ft | 441 kts | 263° |
| 2026-05-05 02:59 | 25.22805 | 48.92707 | 33791 ft | 441 kts | 263° |
| 2026-05-05 03:00 | 25.22175 | 48.85992 | 33797 ft | 442 kts | 263° |
| 2026-05-05 03:00 | 25.21538 | 48.79238 | 33821 ft | 443 kts | 263° |
| 2026-05-05 03:01 | 25.20896 | 48.72466 | 33826 ft | 443 kts | 263° |
| 2026-05-05 03:01 | 25.20251 | 48.65694 | 33846 ft | 443 kts | 263° |
| 2026-05-05 03:02 | 25.19604 | 48.58928 | 33821 ft | 443 kts | 263° |
| 2026-05-05 03:02 | 25.18952 | 48.52152 | 33828 ft | 443 kts | 263° |
| 2026-05-05 03:03 | 25.18303 | 48.45433 | 33824 ft | 443 kts | 263° |
| 2026-05-05 03:03 | 25.17647 | 48.38674 | 33838 ft | 443 kts | 262° |
| 2026-05-05 03:04 | 25.16986 | 48.31907 | 33843 ft | 443 kts | 262° |
| 2026-05-05 03:04 | 25.16323 | 48.25142 | 33845 ft | 443 kts | 262° |
| 2026-05-05 03:05 | 25.15658 | 48.18381 | 33852 ft | 443 kts | 262° |
| 2026-05-05 03:05 | 25.14988 | 48.11617 | 33859 ft | 443 kts | 262° |
| 2026-05-05 03:06 | 25.14314 | 48.04848 | 33861 ft | 443 kts | 262° |
| 2026-05-05 03:06 | 25.13637 | 47.98082 | 33851 ft | 443 kts | 262° |
| 2026-05-05 03:07 | 25.12957 | 47.91320 | 33856 ft | 444 kts | 262° |
| 2026-05-05 03:07 | 25.12272 | 47.84535 | 33859 ft | 445 kts | 262° |
| 2026-05-05 03:08 | 25.11538 | 47.77786 | 33859 ft | 445 kts | 261° |
| 2026-05-05 03:08 | 25.10718 | 47.71014 | 33880 ft | 446 kts | 261° |
| 2026-05-05 03:09 | 25.09905 | 47.64227 | 33886 ft | 446 kts | 261° |
| 2026-05-05 03:09 | 25.09099 | 47.57447 | 33884 ft | 446 kts | 261° |
| 2026-05-05 03:10 | 25.08290 | 47.50662 | 33877 ft | 446 kts | 261° |
| 2026-05-05 03:10 | 25.07483 | 47.43927 | 33872 ft | 445 kts | 261° |
| 2026-05-05 03:11 | 25.06668 | 47.37146 | 33866 ft | 445 kts | 261° |
| 2026-05-05 03:11 | 25.05850 | 47.30376 | 33866 ft | 445 kts | 261° |
| 2026-05-05 03:12 | 25.05030 | 47.23607 | 33880 ft | 445 kts | 261° |
| 2026-05-05 03:12 | 25.04207 | 47.16838 | 33871 ft | 445 kts | 261° |
| 2026-05-05 03:13 | 25.03380 | 47.10070 | 33890 ft | 446 kts | 261° |
| 2026-05-05 03:13 | 25.02549 | 47.03292 | 33896 ft | 446 kts | 261° |
| 2026-05-05 03:14 | 25.01721 | 46.96560 | 33893 ft | 446 kts | 261° |
| 2026-05-05 03:14 | 25.00883 | 46.89782 | 33897 ft | 446 kts | 261° |
| 2026-05-05 03:15 | 25.00043 | 46.83004 | 33913 ft | 446 kts | 261° |
| 2026-05-05 03:15 | 24.99199 | 46.76226 | 33915 ft | 446 kts | 261° |
| 2026-05-05 03:16 | 24.98115 | 46.69500 | 33934 ft | 444 kts | 253° |
| 2026-05-05 03:16 | 24.95800 | 46.63198 | 33927 ft | 443 kts | 242° |
| 2026-05-05 03:17 | 24.92534 | 46.57478 | 33900 ft | 443 kts | 239° |
| 2026-05-05 03:17 | 24.89212 | 46.51759 | 33883 ft | 443 kts | 239° |
| 2026-05-05 03:18 | 24.85883 | 46.46039 | 33901 ft | 444 kts | 239° |
| 2026-05-05 03:18 | 24.82541 | 46.40312 | 33888 ft | 445 kts | 239° |
| 2026-05-05 03:19 | 24.77509 | 46.31707 | 33912 ft | 445 kts | 239° |
| 2026-05-05 03:19 | 24.74152 | 46.25977 | 33911 ft | 446 kts | 239° |
| 2026-05-05 03:20 | 24.70787 | 46.20237 | 33909 ft | 446 kts | 239° |
| 2026-05-05 03:20 | 24.67441 | 46.14537 | 33909 ft | 446 kts | 239° |
| 2026-05-05 03:21 | 24.64075 | 46.08812 | 33906 ft | 446 kts | 239° |
| 2026-05-05 03:21 | 24.60687 | 46.03053 | 33904 ft | 446 kts | 239° |
| 2026-05-05 03:22 | 24.57342 | 45.97376 | 33898 ft | 445 kts | 239° |
| 2026-05-05 03:22 | 24.53977 | 45.91671 | 33902 ft | 445 kts | 239° |
| 2026-05-05 03:23 | 24.50609 | 45.85969 | 33907 ft | 444 kts | 239° |
| 2026-05-05 03:23 | 24.47250 | 45.80286 | 33901 ft | 443 kts | 239° |
| 2026-05-05 03:24 | 24.44145 | 45.74459 | 33903 ft | 441 kts | 245° |
| 2026-05-05 03:24 | 24.41482 | 45.68393 | 33886 ft | 441 kts | 245° |
| 2026-05-05 03:25 | 24.38790 | 45.62339 | 33886 ft | 441 kts | 245° |
| 2026-05-05 03:25 | 24.36117 | 45.56337 | 33884 ft | 441 kts | 245° |
| 2026-05-05 03:26 | 24.33421 | 45.50287 | 33880 ft | 441 kts | 245° |
| 2026-05-05 03:26 | 24.30727 | 45.44251 | 33885 ft | 441 kts | 245° |
| 2026-05-05 03:27 | 24.28029 | 45.38213 | 33901 ft | 441 kts | 245° |
| 2026-05-05 03:27 | 24.25329 | 45.32178 | 33913 ft | 441 kts | 244° |
| 2026-05-05 03:28 | 24.22628 | 45.26148 | 33915 ft | 440 kts | 244° |
| 2026-05-05 03:28 | 24.19940 | 45.20157 | 33890 ft | 440 kts | 244° |
| 2026-05-05 03:29 | 24.17234 | 45.14132 | 33908 ft | 441 kts | 244° |
| 2026-05-05 03:29 | 24.14524 | 45.08108 | 33912 ft | 441 kts | 244° |
| 2026-05-05 03:30 | 24.11801 | 45.02067 | 33919 ft | 442 kts | 244° |
| 2026-05-05 03:30 | 24.09076 | 44.96030 | 33938 ft | 442 kts | 244° |
| 2026-05-05 03:31 | 24.06340 | 44.89975 | 33929 ft | 443 kts | 244° |
| 2026-05-05 03:31 | 24.03615 | 44.83951 | 33932 ft | 442 kts | 244° |
| 2026-05-05 03:32 | 24.00900 | 44.77957 | 33938 ft | 441 kts | 244° |
| 2026-05-05 03:32 | 23.98171 | 44.71942 | 33915 ft | 441 kts | 244° |
| 2026-05-05 03:33 | 23.95435 | 44.65917 | 33920 ft | 442 kts | 244° |
| 2026-05-05 03:33 | 23.92710 | 44.59885 | 33936 ft | 442 kts | 246° |
| 2026-05-05 03:34 | 23.90466 | 44.53622 | 33938 ft | 442 kts | 249° |
| 2026-05-05 03:34 | 23.88263 | 44.47339 | 33933 ft | 442 kts | 249° |
| 2026-05-05 03:35 | 23.86427 | 44.42121 | 33915 ft | 443 kts | 249° |
| 2026-05-05 03:35 | 23.84213 | 44.35841 | 33934 ft | 443 kts | 249° |
| 2026-05-05 03:36 | 23.81639 | 44.28547 | 33935 ft | 443 kts | 249° |
| 2026-05-05 03:36 | 23.79779 | 44.23283 | 33932 ft | 443 kts | 249° |
| 2026-05-05 03:37 | 23.77573 | 44.17049 | 33944 ft | 442 kts | 249° |
| 2026-05-05 03:37 | 23.75353 | 44.10786 | 33920 ft | 441 kts | 249° |
| 2026-05-05 03:38 | 23.73132 | 44.04528 | 33924 ft | 441 kts | 249° |
| 2026-05-05 03:38 | 23.70912 | 43.98282 | 33941 ft | 441 kts | 249° |
| 2026-05-05 03:39 | 23.68688 | 43.92035 | 33940 ft | 441 kts | 249° |
| 2026-05-05 03:39 | 23.66463 | 43.85795 | 33942 ft | 441 kts | 249° |
| 2026-05-05 03:40 | 23.64249 | 43.79593 | 33941 ft | 441 kts | 249° |
| 2026-05-05 03:40 | 23.62018 | 43.73353 | 33935 ft | 441 kts | 249° |
| 2026-05-05 03:41 | 23.59783 | 43.67112 | 33938 ft | 441 kts | 249° |
| 2026-05-05 03:41 | 23.57546 | 43.60876 | 33948 ft | 442 kts | 249° |
| 2026-05-05 03:42 | 23.55308 | 43.54641 | 33974 ft | 442 kts | 249° |
| 2026-05-05 03:42 | 23.53065 | 43.48406 | 33982 ft | 441 kts | 249° |
| 2026-05-05 03:43 | 23.50836 | 43.42216 | 33960 ft | 442 kts | 249° |
| 2026-05-05 03:43 | 23.48578 | 43.35958 | 33962 ft | 441 kts | 249° |
| 2026-05-05 03:44 | 23.46331 | 43.29735 | 33973 ft | 441 kts | 249° |
| 2026-05-05 03:44 | 23.44103 | 43.23574 | 33980 ft | 441 kts | 249° |
| 2026-05-05 03:45 | 23.41850 | 43.17355 | 33993 ft | 440 kts | 249° |
| 2026-05-05 03:45 | 23.39604 | 43.11161 | 33993 ft | 440 kts | 249° |
| 2026-05-05 03:46 | 23.37351 | 43.04970 | 34015 ft | 439 kts | 249° |
| 2026-05-05 03:46 | 23.35098 | 42.98786 | 34026 ft | 439 kts | 248° |
| 2026-05-05 03:47 | 23.32850 | 42.92623 | 34004 ft | 438 kts | 248° |
| 2026-05-05 03:47 | 23.30598 | 42.86457 | 34004 ft | 438 kts | 248° |
| 2026-05-05 03:48 | 23.28350 | 42.80310 | 33983 ft | 437 kts | 248° |
| 2026-05-05 03:48 | 23.26100 | 42.74166 | 33983 ft | 438 kts | 248° |
| 2026-05-05 03:49 | 23.23840 | 42.68003 | 33994 ft | 439 kts | 248° |
| 2026-05-05 03:49 | 23.21590 | 42.61879 | 34003 ft | 440 kts | 248° |
| 2026-05-05 03:50 | 23.19305 | 42.55666 | 34018 ft | 440 kts | 248° |
| 2026-05-05 03:50 | 23.17043 | 42.49525 | 34032 ft | 440 kts | 248° |
| 2026-05-05 03:51 | 23.14765 | 42.43349 | 33995 ft | 440 kts | 248° |
| 2026-05-05 03:51 | 23.12481 | 42.37165 | 34027 ft | 441 kts | 248° |
| 2026-05-05 03:52 | 23.10238 | 42.30969 | 34025 ft | 441 kts | 249° |
| 2026-05-05 03:52 | 23.08038 | 42.24755 | 34020 ft | 441 kts | 249° |
| 2026-05-05 03:53 | 23.05827 | 42.18550 | 34027 ft | 440 kts | 249° |
| 2026-05-05 03:53 | 23.03627 | 42.12400 | 34008 ft | 439 kts | 249° |
| 2026-05-05 03:54 | 23.01411 | 42.06216 | 34014 ft | 439 kts | 249° |
| 2026-05-05 03:54 | 22.99194 | 42.00038 | 34010 ft | 440 kts | 249° |
| 2026-05-05 03:55 | 22.96972 | 41.93854 | 34023 ft | 440 kts | 249° |
| 2026-05-05 03:55 | 22.94747 | 41.87669 | 34018 ft | 440 kts | 249° |
| 2026-05-05 03:56 | 22.92518 | 41.81483 | 34032 ft | 440 kts | 249° |
| 2026-05-05 03:56 | 22.90304 | 41.75345 | 34019 ft | 440 kts | 249° |
| 2026-05-05 03:57 | 22.88073 | 41.69172 | 34028 ft | 440 kts | 249° |
| 2026-05-05 03:57 | 22.85835 | 41.62986 | 34045 ft | 441 kts | 249° |
| 2026-05-05 03:58 | 22.83593 | 41.56797 | 34047 ft | 441 kts | 249° |
| 2026-05-05 03:58 | 22.81347 | 41.50606 | 34072 ft | 440 kts | 249° |
| 2026-05-05 03:59 | 22.79104 | 41.44431 | 34048 ft | 440 kts | 248° |
| 2026-05-05 03:59 | 22.76861 | 41.38267 | 34025 ft | 439 kts | 249° |
| 2026-05-05 04:00 | 22.74619 | 41.32111 | 34057 ft | 440 kts | 249° |
| 2026-05-05 04:00 | 22.72383 | 41.25987 | 34058 ft | 440 kts | 248° |
| 2026-05-05 04:01 | 22.70130 | 41.19828 | 34055 ft | 440 kts | 248° |
| 2026-05-05 04:01 | 22.67871 | 41.13661 | 34057 ft | 440 kts | 248° |
| 2026-05-05 04:02 | 22.65613 | 41.07506 | 34053 ft | 440 kts | 248° |
| 2026-05-05 04:02 | 22.63354 | 41.01359 | 34041 ft | 440 kts | 248° |
| 2026-05-05 04:03 | 22.61091 | 40.95208 | 34044 ft | 440 kts | 248° |
| 2026-05-05 04:03 | 22.58825 | 40.89059 | 34051 ft | 440 kts | 248° |
| 2026-05-05 04:04 | 22.56555 | 40.82908 | 34070 ft | 440 kts | 248° |
| 2026-05-05 04:04 | 22.54283 | 40.76757 | 34054 ft | 440 kts | 248° |
| 2026-05-05 04:05 | 22.52020 | 40.70640 | 34057 ft | 440 kts | 248° |
| 2026-05-05 04:05 | 22.49740 | 40.64487 | 34041 ft | 441 kts | 248° |
| 2026-05-05 04:06 | 22.47457 | 40.58331 | 34060 ft | 441 kts | 248° |
| 2026-05-05 04:06 | 22.45166 | 40.52165 | 34070 ft | 442 kts | 248° |
| 2026-05-05 04:07 | 22.42872 | 40.45995 | 34090 ft | 443 kts | 248° |
| 2026-05-05 04:07 | 22.40587 | 40.39860 | 34099 ft | 443 kts | 248° |
| 2026-05-05 04:08 | 22.38281 | 40.33679 | 34092 ft | 442 kts | 248° |
| 2026-05-05 04:08 | 22.35981 | 40.27522 | 34068 ft | 442 kts | 248° |
| 2026-05-05 04:09 | 22.33679 | 40.21363 | 34086 ft | 441 kts | 248° |
| 2026-05-05 04:09 | 22.31376 | 40.15215 | 34063 ft | 441 kts | 248° |
| 2026-05-05 04:10 | 22.29090 | 40.09118 | 34038 ft | 440 kts | 248° |
| 2026-05-05 04:10 | 22.26713 | 40.03036 | 34033 ft | 440 kts | 244° |
| 2026-05-05 04:11 | 22.23561 | 39.97380 | 34022 ft | 441 kts | 238° |
| 2026-05-05 04:11 | 22.20178 | 39.91862 | 33952 ft | 441 kts | 238° |
| 2026-05-05 04:12 | 22.16799 | 39.86322 | 33975 ft | 442 kts | 238° |
| 2026-05-05 04:12 | 22.13433 | 39.80816 | 33966 ft | 442 kts | 238° |
| 2026-05-05 04:13 | 22.10020 | 39.75244 | 33962 ft | 442 kts | 238° |
| 2026-05-05 04:13 | 22.06646 | 39.69740 | 33955 ft | 442 kts | 238° |
| 2026-05-05 04:14 | 22.03256 | 39.64218 | 33931 ft | 442 kts | 238° |
| 2026-05-05 04:14 | 21.99858 | 39.58688 | 33929 ft | 442 kts | 238° |
| 2026-05-05 04:15 | 21.96468 | 39.53176 | 33923 ft | 441 kts | 238° |
| 2026-05-05 04:15 | 21.93075 | 39.47665 | 33906 ft | 440 kts | 238° |
| 2026-05-05 04:16 | 21.89692 | 39.42176 | 33888 ft | 439 kts | 238° |
| 2026-05-05 04:16 | 21.86314 | 39.36701 | 33849 ft | 439 kts | 238° |
| 2026-05-05 04:17 | 21.82929 | 39.31218 | 33859 ft | 440 kts | 238° |
| 2026-05-05 04:17 | 21.79534 | 39.25727 | 33858 ft | 441 kts | 238° |
| 2026-05-05 04:18 | 21.76144 | 39.20249 | 33858 ft | 442 kts | 238° |
| 2026-05-05 04:18 | 21.72741 | 39.14730 | 33862 ft | 442 kts | 240° |
| 2026-05-05 04:19 | 21.69995 | 39.08842 | 33849 ft | 441 kts | 249° |
| 2026-05-05 04:19 | 21.67858 | 39.02657 | 33853 ft | 441 kts | 250° |
| 2026-05-05 04:20 | 21.65706 | 38.96523 | 33854 ft | 442 kts | 249° |
| 2026-05-05 04:20 | 21.63532 | 38.90336 | 33857 ft | 442 kts | 249° |
| 2026-05-05 04:21 | 21.61355 | 38.84139 | 33868 ft | 442 kts | 249° |
| 2026-05-05 04:21 | 21.59194 | 38.77997 | 33868 ft | 442 kts | 249° |
| 2026-05-05 04:22 | 21.57014 | 38.71808 | 33872 ft | 442 kts | 249° |
| 2026-05-05 04:22 | 21.54836 | 38.65635 | 33870 ft | 442 kts | 250° |
| 2026-05-05 04:23 | 21.52655 | 38.59460 | 33866 ft | 442 kts | 249° |
| 2026-05-05 04:23 | 21.50840 | 38.54326 | 33866 ft | 442 kts | 249° |
| 2026-05-05 04:24 | 21.48653 | 38.48150 | 33869 ft | 442 kts | 249° |
| 2026-05-05 04:25 | 21.45367 | 38.38883 | 33874 ft | 442 kts | 249° |
| 2026-05-05 04:25 | 21.43173 | 38.32708 | 33883 ft | 442 kts | 249° |
| 2026-05-05 04:26 | 21.40992 | 38.26577 | 33869 ft | 443 kts | 250° |
| 2026-05-05 04:26 | 21.38786 | 38.20384 | 33872 ft | 444 kts | 250° |
| 2026-05-05 04:27 | 21.36584 | 38.14195 | 33899 ft | 444 kts | 250° |
| 2026-05-05 04:27 | 21.34460 | 38.07967 | 33906 ft | 445 kts | 250° |
| 2026-05-05 04:28 | 21.32346 | 38.01727 | 33908 ft | 445 kts | 250° |
| 2026-05-05 04:28 | 21.30219 | 37.95495 | 33915 ft | 445 kts | 250° |
| 2026-05-05 04:29 | 21.28102 | 37.89313 | 33930 ft | 444 kts | 250° |
| 2026-05-05 04:29 | 21.25955 | 37.83057 | 33903 ft | 444 kts | 250° |
| 2026-05-05 04:30 | 21.23835 | 37.76883 | 33905 ft | 444 kts | 250° |
| 2026-05-05 04:30 | 21.21699 | 37.70670 | 33915 ft | 444 kts | 250° |
| 2026-05-05 04:31 | 21.19560 | 37.64459 | 33907 ft | 444 kts | 250° |
| 2026-05-05 04:31 | 21.17416 | 37.58241 | 33916 ft | 445 kts | 250° |
| 2026-05-05 04:32 | 21.15271 | 37.52030 | 33915 ft | 445 kts | 250° |
| 2026-05-05 04:32 | 21.13122 | 37.45813 | 33925 ft | 445 kts | 250° |
| 2026-05-05 04:33 | 21.10973 | 37.39605 | 33913 ft | 445 kts | 250° |
| 2026-05-05 04:33 | 21.08819 | 37.33393 | 33915 ft | 445 kts | 250° |
| 2026-05-05 04:34 | 21.06671 | 37.27204 | 33917 ft | 445 kts | 250° |
| 2026-05-05 04:34 | 21.04505 | 37.20973 | 33934 ft | 446 kts | 250° |
| 2026-05-05 04:35 | 21.02343 | 37.14760 | 33935 ft | 445 kts | 250° |
| 2026-05-05 04:35 | 21.00180 | 37.08554 | 33937 ft | 445 kts | 250° |
| 2026-05-05 04:36 | 20.98013 | 37.02346 | 33949 ft | 445 kts | 250° |
| 2026-05-05 04:36 | 20.95844 | 36.96139 | 33927 ft | 445 kts | 250° |
| 2026-05-05 04:37 | 20.93674 | 36.89934 | 33937 ft | 447 kts | 250° |
| 2026-05-05 04:37 | 20.91499 | 36.83727 | 33964 ft | 447 kts | 250° |
| 2026-05-05 04:38 | 20.89315 | 36.77496 | 33958 ft | 447 kts | 250° |
| 2026-05-05 04:38 | 20.87129 | 36.71277 | 33977 ft | 447 kts | 250° |
| 2026-05-05 04:39 | 20.84937 | 36.65051 | 33973 ft | 447 kts | 250° |
| 2026-05-05 04:39 | 20.82750 | 36.58844 | 33976 ft | 446 kts | 250° |
| 2026-05-05 04:40 | 20.80560 | 36.52636 | 33950 ft | 446 kts | 250° |
| 2026-05-05 04:40 | 20.78369 | 36.46428 | 33966 ft | 446 kts | 250° |
| 2026-05-05 04:41 | 20.76176 | 36.40228 | 33967 ft | 446 kts | 250° |
| 2026-05-05 04:41 | 20.73978 | 36.34017 | 33975 ft | 446 kts | 250° |
| 2026-05-05 04:42 | 20.71792 | 36.27858 | 33973 ft | 447 kts | 250° |
| 2026-05-05 04:42 | 20.69588 | 36.21654 | 33985 ft | 446 kts | 250° |
| 2026-05-05 04:43 | 20.67389 | 36.15464 | 33977 ft | 445 kts | 250° |
| 2026-05-05 04:43 | 20.65185 | 36.09269 | 33942 ft | 445 kts | 250° |
| 2026-05-05 04:44 | 20.62987 | 36.03098 | 33951 ft | 445 kts | 250° |
| 2026-05-05 04:44 | 20.60781 | 35.96916 | 33952 ft | 446 kts | 250° |
| 2026-05-05 04:45 | 20.58568 | 35.90725 | 33962 ft | 446 kts | 250° |
| 2026-05-05 04:45 | 20.56354 | 35.84534 | 33965 ft | 447 kts | 250° |
| 2026-05-05 04:46 | 20.54134 | 35.78337 | 33968 ft | 447 kts | 250° |
| 2026-05-05 04:46 | 20.51925 | 35.72179 | 33976 ft | 447 kts | 250° |
| 2026-05-05 04:47 | 20.49705 | 35.65997 | 33974 ft | 447 kts | 250° |
| 2026-05-05 04:47 | 20.47480 | 35.59809 | 33972 ft | 446 kts | 250° |
| 2026-05-05 04:48 | 20.45263 | 35.53651 | 33972 ft | 446 kts | 250° |
| 2026-05-05 04:48 | 20.43036 | 35.47475 | 33981 ft | 445 kts | 250° |
| 2026-05-05 04:49 | 20.40812 | 35.41315 | 33976 ft | 445 kts | 250° |
| 2026-05-05 04:49 | 20.38591 | 35.35169 | 33969 ft | 444 kts | 250° |
| 2026-05-05 04:50 | 20.36382 | 35.29064 | 33958 ft | 443 kts | 250° |
| 2026-05-05 04:50 | 20.34161 | 35.22932 | 33957 ft | 443 kts | 250° |
| 2026-05-05 04:51 | 20.31936 | 35.16800 | 33938 ft | 443 kts | 250° |
| 2026-05-05 04:51 | 20.29711 | 35.10673 | 33942 ft | 444 kts | 250° |
| 2026-05-05 04:52 | 20.27494 | 35.04576 | 33952 ft | 445 kts | 250° |
| 2026-05-05 04:52 | 20.25252 | 34.98420 | 33968 ft | 446 kts | 250° |
| 2026-05-05 04:53 | 20.23006 | 34.92259 | 33969 ft | 446 kts | 250° |
| 2026-05-05 04:53 | 20.20759 | 34.86105 | 33972 ft | 446 kts | 250° |
| 2026-05-05 04:54 | 20.18507 | 34.79944 | 33967 ft | 446 kts | 250° |
| 2026-05-05 04:54 | 20.16258 | 34.73796 | 33960 ft | 445 kts | 250° |
| 2026-05-05 04:55 | 20.14023 | 34.67696 | 33936 ft | 445 kts | 250° |
| 2026-05-05 04:55 | 20.11768 | 34.61550 | 33934 ft | 446 kts | 250° |
| 2026-05-05 04:56 | 20.09506 | 34.55392 | 33936 ft | 447 kts | 250° |
| 2026-05-05 04:56 | 20.07241 | 34.49232 | 33946 ft | 448 kts | 250° |
| 2026-05-05 04:57 | 20.04965 | 34.43052 | 33965 ft | 448 kts | 250° |
| 2026-05-05 04:57 | 20.02691 | 34.36884 | 33963 ft | 447 kts | 250° |
| 2026-05-05 04:58 | 20.00418 | 34.30724 | 33958 ft | 447 kts | 250° |
| 2026-05-05 04:58 | 19.98157 | 34.24608 | 33919 ft | 447 kts | 250° |
| 2026-05-05 04:59 | 19.95878 | 34.18447 | 33941 ft | 447 kts | 250° |
| 2026-05-05 04:59 | 19.93596 | 34.12289 | 33943 ft | 448 kts | 250° |
| 2026-05-05 05:00 | 19.91311 | 34.06126 | 33947 ft | 448 kts | 250° |
| 2026-05-05 05:00 | 19.89023 | 33.99966 | 33955 ft | 448 kts | 249° |
| 2026-05-05 05:01 | 19.86747 | 33.93844 | 33961 ft | 448 kts | 249° |
| 2026-05-05 05:01 | 19.84451 | 33.87677 | 33963 ft | 448 kts | 249° |
| 2026-05-05 05:02 | 19.82159 | 33.81528 | 33955 ft | 447 kts | 249° |
| 2026-05-05 05:02 | 19.79867 | 33.75386 | 33925 ft | 447 kts | 249° |
| 2026-05-05 05:03 | 19.77584 | 33.69275 | 33928 ft | 448 kts | 249° |
| 2026-05-05 05:03 | 19.75281 | 33.63117 | 33954 ft | 448 kts | 249° |
| 2026-05-05 05:04 | 19.72975 | 33.56956 | 33956 ft | 449 kts | 249° |
| 2026-05-05 05:04 | 19.70664 | 33.50794 | 33955 ft | 449 kts | 249° |
| 2026-05-05 05:05 | 19.68352 | 33.44647 | 33956 ft | 448 kts | 249° |
| 2026-05-05 05:05 | 19.66038 | 33.38492 | 33955 ft | 448 kts | 249° |
| 2026-05-05 05:06 | 19.63741 | 33.32392 | 33952 ft | 448 kts | 249° |
| 2026-05-05 05:06 | 19.61425 | 33.26245 | 33919 ft | 449 kts | 249° |
| 2026-05-05 05:07 | 19.59098 | 33.20080 | 33931 ft | 450 kts | 249° |
| 2026-05-05 05:07 | 19.56765 | 33.13905 | 33952 ft | 452 kts | 249° |
| 2026-05-05 05:08 | 19.54424 | 33.07718 | 33961 ft | 452 kts | 249° |
| 2026-05-05 05:08 | 19.52093 | 33.01565 | 33968 ft | 453 kts | 249° |
| 2026-05-05 05:09 | 19.49744 | 32.95368 | 33973 ft | 453 kts | 249° |
| 2026-05-05 05:09 | 19.47392 | 32.89174 | 33968 ft | 453 kts | 249° |
| 2026-05-05 05:10 | 19.45039 | 32.82985 | 33975 ft | 451 kts | 249° |
| 2026-05-05 05:10 | 19.42695 | 32.76824 | 33950 ft | 451 kts | 249° |
| 2026-05-05 05:11 | 19.40346 | 32.70659 | 33950 ft | 451 kts | 249° |
| 2026-05-05 05:11 | 19.38390 | 32.65529 | 33949 ft | 452 kts | 249° |
| 2026-05-05 05:12 | 19.35652 | 32.58359 | 33969 ft | 451 kts | 249° |
| 2026-05-05 05:12 | 19.33678 | 32.53195 | 33969 ft | 451 kts | 249° |
| 2026-05-05 05:13 | 19.31323 | 32.47044 | 33970 ft | 451 kts | 249° |
| 2026-05-05 05:13 | 19.28965 | 32.40888 | 33965 ft | 451 kts | 249° |
| 2026-05-05 05:14 | 19.26603 | 32.34731 | 33968 ft | 451 kts | 249° |
| 2026-05-05 05:14 | 19.24243 | 32.28586 | 33946 ft | 451 kts | 249° |
| 2026-05-05 05:15 | 19.21897 | 32.22485 | 33949 ft | 451 kts | 249° |
| 2026-05-05 05:15 | 19.19525 | 32.16323 | 33963 ft | 452 kts | 249° |
| 2026-05-05 05:16 | 19.17145 | 32.10147 | 33961 ft | 452 kts | 249° |
| 2026-05-05 05:16 | 19.15950 | 32.07047 | 34162 ft | 455 kts | 249° |
| 2026-05-05 05:16 | 19.14756 | 32.03956 | 34709 ft | 451 kts | 249° |
| 2026-05-05 05:16 | 19.13577 | 32.00902 | 35185 ft | 448 kts | 249° |
| 2026-05-05 05:17 | 19.12415 | 31.97897 | 35602 ft | 446 kts | 249° |
| 2026-05-05 05:17 | 19.11225 | 31.94818 | 35904 ft | 447 kts | 249° |
| 2026-05-05 05:17 | 19.10073 | 31.91838 | 35989 ft | 443 kts | 249° |
| 2026-05-05 05:18 | 19.07746 | 31.85827 | 35970 ft | 442 kts | 249° |
| 2026-05-05 05:18 | 19.05413 | 31.79804 | 35992 ft | 446 kts | 249° |
| 2026-05-05 05:19 | 19.03067 | 31.73757 | 35966 ft | 443 kts | 249° |
| 2026-05-05 05:19 | 19.00728 | 31.67736 | 35959 ft | 443 kts | 249° |
| 2026-05-05 05:20 | 18.98390 | 31.61721 | 35964 ft | 442 kts | 249° |
| 2026-05-05 05:20 | 18.96051 | 31.55710 | 35962 ft | 442 kts | 249° |
| 2026-05-05 05:21 | 18.93713 | 31.49709 | 35966 ft | 442 kts | 249° |
| 2026-05-05 05:21 | 18.91370 | 31.43702 | 35967 ft | 442 kts | 249° |
| 2026-05-05 05:22 | 18.89027 | 31.37694 | 35970 ft | 442 kts | 249° |
| 2026-05-05 05:22 | 18.86680 | 31.31685 | 35981 ft | 443 kts | 249° |
| 2026-05-05 05:23 | 18.84327 | 31.25669 | 35957 ft | 444 kts | 249° |
| 2026-05-05 05:23 | 18.81976 | 31.19678 | 35962 ft | 445 kts | 249° |
| 2026-05-05 05:24 | 18.79605 | 31.13635 | 35977 ft | 446 kts | 249° |
| 2026-05-05 05:24 | 18.77226 | 31.07578 | 35982 ft | 447 kts | 249° |
| 2026-05-05 05:25 | 18.74843 | 31.01518 | 35991 ft | 447 kts | 249° |
| 2026-05-05 05:25 | 18.72454 | 30.95451 | 36009 ft | 447 kts | 249° |
| 2026-05-05 05:26 | 18.70082 | 30.89432 | 35998 ft | 446 kts | 249° |
| 2026-05-05 05:26 | 18.67698 | 30.83391 | 36001 ft | 446 kts | 249° |
| 2026-05-05 05:27 | 18.65313 | 30.77352 | 35993 ft | 445 kts | 249° |
| 2026-05-05 05:27 | 18.61748 | 30.68341 | 35973 ft | 443 kts | 249° |
| 2026-05-05 05:28 | 18.59375 | 30.62350 | 35973 ft | 443 kts | 249° |
| 2026-05-05 05:28 | 18.57002 | 30.56365 | 35971 ft | 442 kts | 249° |
| 2026-05-05 05:29 | 18.54644 | 30.50424 | 35971 ft | 442 kts | 249° |
| 2026-05-05 05:29 | 18.52260 | 30.44425 | 35974 ft | 443 kts | 249° |
| 2026-05-05 05:30 | 18.49876 | 30.38431 | 35989 ft | 443 kts | 249° |
| 2026-05-05 05:30 | 18.47489 | 30.32438 | 35983 ft | 443 kts | 249° |
| 2026-05-05 05:31 | 18.45101 | 30.26449 | 35968 ft | 444 kts | 249° |
| 2026-05-05 05:31 | 18.42705 | 30.20443 | 35976 ft | 445 kts | 249° |
| 2026-05-05 05:32 | 18.40297 | 30.14416 | 35979 ft | 446 kts | 249° |
| 2026-05-05 05:32 | 18.37900 | 30.08423 | 36001 ft | 447 kts | 249° |
| 2026-05-05 05:33 | 18.35470 | 30.02354 | 36007 ft | 447 kts | 249° |
| 2026-05-05 05:33 | 18.33062 | 29.96346 | 36003 ft | 447 kts | 249° |
| 2026-05-05 05:34 | 18.30641 | 29.90312 | 35997 ft | 447 kts | 249° |
| 2026-05-05 05:34 | 18.28221 | 29.84286 | 35999 ft | 447 kts | 249° |
| 2026-05-05 05:35 | 18.25801 | 29.78268 | 36006 ft | 446 kts | 249° |
| 2026-05-05 05:35 | 18.23384 | 29.72263 | 35968 ft | 446 kts | 249° |
| 2026-05-05 05:36 | 18.20963 | 29.66253 | 35983 ft | 446 kts | 249° |
| 2026-05-05 05:36 | 18.18552 | 29.60274 | 35982 ft | 447 kts | 249° |
| 2026-05-05 05:37 | 18.16118 | 29.54247 | 35991 ft | 447 kts | 249° |
| 2026-05-05 05:37 | 18.13682 | 29.48221 | 36003 ft | 448 kts | 249° |
| 2026-05-05 05:38 | 18.11245 | 29.42196 | 35999 ft | 448 kts | 249° |
| 2026-05-05 05:38 | 18.08807 | 29.36178 | 35999 ft | 447 kts | 249° |
| 2026-05-05 05:39 | 18.06362 | 29.30146 | 35997 ft | 447 kts | 249° |
| 2026-05-05 05:39 | 18.03938 | 29.24176 | 35990 ft | 447 kts | 249° |
| 2026-05-05 05:40 | 18.01494 | 29.18160 | 35987 ft | 448 kts | 249° |
| 2026-05-05 05:40 | 17.99044 | 29.12137 | 35988 ft | 448 kts | 249° |
| 2026-05-05 05:41 | 17.96591 | 29.06110 | 35980 ft | 449 kts | 249° |
| 2026-05-05 05:41 | 17.94133 | 29.00080 | 35990 ft | 449 kts | 249° |
| 2026-05-05 05:42 | 17.91689 | 28.94088 | 35995 ft | 449 kts | 249° |
| 2026-05-05 05:42 | 17.89231 | 28.88069 | 36006 ft | 449 kts | 249° |
| 2026-05-05 05:43 | 17.86767 | 28.82043 | 35997 ft | 449 kts | 249° |
| 2026-05-05 05:43 | 17.84304 | 28.76024 | 36003 ft | 448 kts | 249° |
| 2026-05-05 05:44 | 17.81843 | 28.70015 | 35980 ft | 449 kts | 249° |
| 2026-05-05 05:44 | 17.79377 | 28.63996 | 35985 ft | 449 kts | 248° |
| 2026-05-05 05:45 | 17.76902 | 28.57974 | 35985 ft | 450 kts | 248° |
| 2026-05-05 05:45 | 17.74424 | 28.51943 | 35991 ft | 450 kts | 248° |
| 2026-05-05 05:46 | 17.71943 | 28.45913 | 35986 ft | 451 kts | 248° |
| 2026-05-05 05:46 | 17.69472 | 28.39911 | 35991 ft | 451 kts | 248° |
| 2026-05-05 05:47 | 17.66982 | 28.33871 | 35999 ft | 451 kts | 248° |
| 2026-05-05 05:47 | 17.64500 | 28.27854 | 35997 ft | 450 kts | 248° |
| 2026-05-05 05:48 | 17.62009 | 28.21821 | 35999 ft | 450 kts | 248° |
| 2026-05-05 05:48 | 17.59521 | 28.15803 | 35974 ft | 450 kts | 248° |
| 2026-05-05 05:49 | 17.57030 | 28.09783 | 35976 ft | 451 kts | 248° |
| 2026-05-05 05:49 | 17.54544 | 28.03780 | 35981 ft | 451 kts | 248° |
| 2026-05-05 05:50 | 17.52040 | 27.97741 | 35989 ft | 452 kts | 248° |
| 2026-05-05 05:50 | 17.49530 | 27.91695 | 35998 ft | 452 kts | 248° |
| 2026-05-05 05:51 | 17.47020 | 27.85654 | 36003 ft | 452 kts | 248° |
| 2026-05-05 05:51 | 17.44507 | 27.79612 | 36000 ft | 452 kts | 248° |
| 2026-05-05 05:52 | 17.41989 | 27.73565 | 35997 ft | 452 kts | 248° |
| 2026-05-05 05:52 | 17.39469 | 27.67517 | 35999 ft | 452 kts | 248° |
| 2026-05-05 05:53 | 17.36970 | 27.61527 | 35968 ft | 453 kts | 248° |
| 2026-05-05 05:53 | 17.34444 | 27.55477 | 35972 ft | 454 kts | 248° |
| 2026-05-05 05:54 | 17.31912 | 27.49419 | 35981 ft | 455 kts | 248° |
| 2026-05-05 05:54 | 17.29373 | 27.43350 | 36009 ft | 455 kts | 248° |
| 2026-05-05 05:55 | 17.26829 | 27.37278 | 36011 ft | 455 kts | 248° |
| 2026-05-05 05:55 | 17.24286 | 27.31210 | 36016 ft | 455 kts | 248° |
| 2026-05-05 05:56 | 17.21740 | 27.25143 | 36014 ft | 455 kts | 248° |
| 2026-05-05 05:56 | 17.19192 | 27.19077 | 36009 ft | 455 kts | 248° |
| 2026-05-05 05:57 | 17.16662 | 27.13076 | 36017 ft | 454 kts | 248° |
| 2026-05-05 05:57 | 17.14116 | 27.07042 | 35985 ft | 454 kts | 248° |
| 2026-05-05 05:58 | 17.11571 | 27.01006 | 35981 ft | 454 kts | 248° |
| 2026-05-05 05:58 | 17.09017 | 26.94958 | 35985 ft | 455 kts | 248° |
| 2026-05-05 05:59 | 17.06449 | 26.88884 | 35994 ft | 456 kts | 248° |
| 2026-05-05 05:59 | 17.03904 | 26.82871 | 36014 ft | 456 kts | 248° |
| 2026-05-05 06:00 | 17.01334 | 26.76807 | 36021 ft | 456 kts | 248° |
| 2026-05-05 06:00 | 16.98767 | 26.70753 | 36014 ft | 455 kts | 248° |
| 2026-05-05 06:01 | 16.96198 | 26.64701 | 36009 ft | 455 kts | 248° |
| 2026-05-05 06:01 | 16.94061 | 26.59673 | 36006 ft | 455 kts | 248° |
| 2026-05-05 06:02 | 16.91493 | 26.53635 | 35995 ft | 454 kts | 248° |
| 2026-05-05 06:02 | 16.88926 | 26.47604 | 35981 ft | 455 kts | 248° |
| 2026-05-05 06:03 | 16.86367 | 26.41598 | 35986 ft | 455 kts | 248° |
| 2026-05-05 06:03 | 16.83788 | 26.35548 | 35991 ft | 456 kts | 248° |
| 2026-05-05 06:04 | 16.81203 | 26.29495 | 35997 ft | 457 kts | 248° |
| 2026-05-05 06:04 | 16.78611 | 26.23429 | 36013 ft | 457 kts | 248° |
| 2026-05-05 06:05 | 16.76025 | 26.17382 | 36018 ft | 457 kts | 248° |
| 2026-05-05 06:05 | 16.73436 | 26.11334 | 36007 ft | 456 kts | 248° |
| 2026-05-05 06:06 | 16.70850 | 26.05299 | 36004 ft | 456 kts | 248° |
| 2026-05-05 06:06 | 16.68261 | 25.99263 | 35999 ft | 455 kts | 248° |
| 2026-05-05 06:07 | 16.65691 | 25.93278 | 35974 ft | 456 kts | 248° |
| 2026-05-05 06:07 | 16.63096 | 25.87238 | 35982 ft | 456 kts | 248° |
| 2026-05-05 06:08 | 16.60496 | 25.81194 | 35985 ft | 456 kts | 248° |
| 2026-05-05 06:08 | 16.57893 | 25.75148 | 35990 ft | 457 kts | 248° |
| 2026-05-05 06:09 | 16.55300 | 25.69131 | 35997 ft | 458 kts | 248° |
| 2026-05-05 06:09 | 16.52687 | 25.63075 | 36004 ft | 458 kts | 248° |
| 2026-05-05 06:10 | 16.50074 | 25.57023 | 36002 ft | 458 kts | 248° |
| 2026-05-05 06:10 | 16.47454 | 25.50960 | 35999 ft | 457 kts | 248° |
| 2026-05-05 06:11 | 16.44858 | 25.44957 | 36005 ft | 457 kts | 248° |
| 2026-05-05 06:11 | 16.42248 | 25.38930 | 35995 ft | 456 kts | 248° |
| 2026-05-05 06:12 | 16.39638 | 25.32907 | 35991 ft | 456 kts | 248° |
| 2026-05-05 06:12 | 16.37029 | 25.26893 | 35994 ft | 455 kts | 248° |
| 2026-05-05 06:13 | 16.34423 | 25.20889 | 35990 ft | 454 kts | 248° |
| 2026-05-05 06:13 | 16.31816 | 25.14890 | 35989 ft | 454 kts | 248° |
| 2026-05-05 06:14 | 16.29212 | 25.08905 | 35981 ft | 454 kts | 248° |
| 2026-05-05 06:14 | 16.26622 | 25.02954 | 35984 ft | 454 kts | 248° |
| 2026-05-05 06:15 | 16.24012 | 24.96965 | 35990 ft | 454 kts | 247° |
| 2026-05-05 06:15 | 16.21404 | 24.90985 | 35989 ft | 454 kts | 247° |
| 2026-05-05 06:16 | 16.18794 | 24.85008 | 35978 ft | 453 kts | 247° |
| 2026-05-05 06:16 | 16.16182 | 24.79029 | 35968 ft | 455 kts | 247° |
| 2026-05-05 06:17 | 16.13563 | 24.73040 | 35976 ft | 455 kts | 247° |
| 2026-05-05 06:17 | 16.10936 | 24.67038 | 35982 ft | 456 kts | 247° |
| 2026-05-05 06:18 | 16.08299 | 24.61020 | 35986 ft | 457 kts | 247° |
| 2026-05-05 06:18 | 16.05660 | 24.55003 | 35984 ft | 458 kts | 247° |
| 2026-05-05 06:19 | 16.03016 | 24.48979 | 35983 ft | 458 kts | 247° |
| 2026-05-05 06:19 | 16.00387 | 24.42994 | 35982 ft | 458 kts | 247° |
| 2026-05-05 06:20 | 15.97742 | 24.36980 | 35981 ft | 457 kts | 247° |
| 2026-05-05 06:20 | 15.95099 | 24.30974 | 35982 ft | 457 kts | 247° |
| 2026-05-05 06:21 | 15.92454 | 24.24969 | 35963 ft | 457 kts | 247° |
| 2026-05-05 06:21 | 15.89807 | 24.18964 | 35970 ft | 457 kts | 247° |
| 2026-05-05 06:22 | 15.87149 | 24.12941 | 35975 ft | 458 kts | 247° |
| 2026-05-05 06:22 | 15.84493 | 24.06926 | 35966 ft | 459 kts | 247° |
| 2026-05-05 06:23 | 15.81832 | 24.00901 | 35987 ft | 459 kts | 247° |
| 2026-05-05 06:23 | 15.79171 | 23.94869 | 35987 ft | 459 kts | 247° |
| 2026-05-05 06:24 | 15.76517 | 23.88839 | 35985 ft | 459 kts | 247° |
| 2026-05-05 06:24 | 15.73861 | 23.82811 | 35983 ft | 459 kts | 247° |
| 2026-05-05 06:25 | 15.71204 | 23.76786 | 35985 ft | 459 kts | 247° |
| 2026-05-05 06:25 | 15.68545 | 23.70764 | 35991 ft | 458 kts | 247° |
| 2026-05-05 06:26 | 15.65906 | 23.64792 | 35949 ft | 458 kts | 247° |
| 2026-05-05 06:26 | 15.63244 | 23.58772 | 35957 ft | 459 kts | 247° |
| 2026-05-05 06:27 | 15.59247 | 23.49745 | 35972 ft | 460 kts | 247° |
| 2026-05-05 06:28 | 15.56574 | 23.43714 | 35972 ft | 460 kts | 247° |
| 2026-05-05 06:28 | 15.53902 | 23.37691 | 35981 ft | 460 kts | 247° |
| 2026-05-05 06:29 | 15.51221 | 23.31654 | 35984 ft | 460 kts | 247° |
| 2026-05-05 06:29 | 15.48543 | 23.25627 | 35982 ft | 460 kts | 247° |
| 2026-05-05 06:30 | 15.45882 | 23.19644 | 35978 ft | 460 kts | 247° |
| 2026-05-05 06:30 | 15.43205 | 23.13632 | 35974 ft | 459 kts | 247° |
| 2026-05-05 06:31 | 15.40526 | 23.07618 | 35957 ft | 460 kts | 246° |
| 2026-05-05 06:31 | 15.37842 | 23.01599 | 35961 ft | 460 kts | 246° |
| 2026-05-05 06:32 | 15.35151 | 22.95572 | 35966 ft | 461 kts | 246° |
| 2026-05-05 06:32 | 15.32445 | 22.89544 | 35973 ft | 461 kts | 246° |
| 2026-05-05 06:33 | 15.29735 | 22.83512 | 35978 ft | 462 kts | 246° |
| 2026-05-05 06:33 | 15.27020 | 22.77473 | 35978 ft | 462 kts | 246° |
| 2026-05-05 06:34 | 15.24307 | 22.71442 | 35987 ft | 462 kts | 246° |
| 2026-05-05 06:34 | 15.21591 | 22.65407 | 35986 ft | 461 kts | 246° |
| 2026-05-05 06:35 | 15.18898 | 22.59432 | 35983 ft | 461 kts | 246° |
| 2026-05-05 06:35 | 15.16168 | 22.53378 | 35985 ft | 461 kts | 246° |
| 2026-05-05 06:36 | 15.13471 | 22.47401 | 35966 ft | 461 kts | 246° |
| 2026-05-05 06:36 | 15.10751 | 22.41376 | 35968 ft | 461 kts | 247° |
| 2026-05-05 06:37 | 15.08370 | 22.35219 | 35971 ft | 461 kts | 250° |
| 2026-05-05 06:37 | 15.06012 | 22.29042 | 35977 ft | 462 kts | 249° |
| 2026-05-05 06:38 | 15.03657 | 22.22889 | 35975 ft | 462 kts | 249° |
| 2026-05-05 06:38 | 15.01287 | 22.16699 | 35977 ft | 462 kts | 249° |
| 2026-05-05 06:39 | 14.98912 | 22.10505 | 35984 ft | 462 kts | 249° |
| 2026-05-05 06:39 | 14.96544 | 22.04333 | 35974 ft | 461 kts | 249° |
| 2026-05-05 06:40 | 14.94175 | 21.98162 | 35970 ft | 461 kts | 249° |
| 2026-05-05 06:40 | 14.91808 | 21.92005 | 35951 ft | 460 kts | 249° |
| 2026-05-05 06:41 | 14.89441 | 21.85851 | 35940 ft | 460 kts | 249° |
| 2026-05-05 06:41 | 14.87086 | 21.79736 | 35921 ft | 461 kts | 249° |
| 2026-05-05 06:42 | 14.84709 | 21.73566 | 35925 ft | 461 kts | 249° |
| 2026-05-05 06:42 | 14.82331 | 21.67402 | 35934 ft | 462 kts | 249° |
| 2026-05-05 06:43 | 14.79953 | 21.61244 | 35933 ft | 462 kts | 249° |
| 2026-05-05 06:43 | 14.77566 | 21.55069 | 35933 ft | 462 kts | 249° |
| 2026-05-05 06:44 | 14.75191 | 21.48929 | 35921 ft | 463 kts | 249° |
| 2026-05-05 06:44 | 14.72800 | 21.42751 | 35929 ft | 463 kts | 249° |
| 2026-05-05 06:45 | 14.70409 | 21.36584 | 35916 ft | 462 kts | 249° |
| 2026-05-05 06:45 | 14.68015 | 21.30410 | 35909 ft | 462 kts | 249° |
| 2026-05-05 06:46 | 14.65623 | 21.24249 | 35907 ft | 462 kts | 249° |
| 2026-05-05 06:46 | 14.63226 | 21.18078 | 35898 ft | 462 kts | 249° |
| 2026-05-05 06:47 | 14.60830 | 21.11917 | 35884 ft | 462 kts | 249° |
| 2026-05-05 06:47 | 14.58448 | 21.05799 | 35885 ft | 463 kts | 249° |
| 2026-05-05 06:48 | 14.56044 | 20.99628 | 35882 ft | 463 kts | 249° |
| 2026-05-05 06:48 | 14.54046 | 20.94503 | 35885 ft | 463 kts | 249° |
| 2026-05-05 06:49 | 14.51639 | 20.88337 | 35887 ft | 463 kts | 249° |
| 2026-05-05 06:49 | 14.49224 | 20.82151 | 35883 ft | 463 kts | 249° |
| 2026-05-05 06:50 | 14.46815 | 20.75987 | 35887 ft | 463 kts | 249° |
| 2026-05-05 06:50 | 14.44397 | 20.69811 | 35884 ft | 463 kts | 249° |
| 2026-05-05 06:51 | 14.41999 | 20.63686 | 35880 ft | 463 kts | 249° |
| 2026-05-05 06:51 | 14.39582 | 20.57519 | 35884 ft | 463 kts | 249° |
| 2026-05-05 06:52 | 14.37167 | 20.51365 | 35880 ft | 463 kts | 249° |
| 2026-05-05 06:52 | 14.34749 | 20.45207 | 35868 ft | 463 kts | 249° |
| 2026-05-05 06:53 | 14.32328 | 20.39047 | 35870 ft | 464 kts | 249° |
| 2026-05-05 06:53 | 14.29898 | 20.32871 | 35877 ft | 465 kts | 249° |
| 2026-05-05 06:54 | 14.27463 | 20.26687 | 35879 ft | 465 kts | 249° |
| 2026-05-05 06:54 | 14.25026 | 20.20501 | 35885 ft | 466 kts | 249° |
| 2026-05-05 06:55 | 14.22583 | 20.14306 | 35893 ft | 466 kts | 249° |
| 2026-05-05 06:55 | 14.20140 | 20.08116 | 35887 ft | 467 kts | 249° |
| 2026-05-05 06:56 | 14.17704 | 20.01951 | 35885 ft | 467 kts | 249° |
| 2026-05-05 06:56 | 14.15251 | 19.95748 | 35887 ft | 467 kts | 249° |
| 2026-05-05 06:57 | 14.12802 | 19.89561 | 35886 ft | 466 kts | 249° |
| 2026-05-05 06:57 | 14.10350 | 19.83371 | 35884 ft | 466 kts | 249° |
| 2026-05-05 06:58 | 14.07913 | 19.77225 | 35865 ft | 466 kts | 249° |
| 2026-05-05 06:58 | 14.05455 | 19.71030 | 35854 ft | 467 kts | 249° |
| 2026-05-05 06:59 | 14.02993 | 19.64830 | 35857 ft | 468 kts | 249° |
| 2026-05-05 06:59 | 14.00522 | 19.58612 | 35865 ft | 469 kts | 249° |
| 2026-05-05 07:00 | 13.98049 | 19.52396 | 35874 ft | 470 kts | 249° |
| 2026-05-05 07:00 | 13.95570 | 19.46171 | 35882 ft | 470 kts | 249° |
| 2026-05-05 07:01 | 13.93089 | 19.39943 | 35888 ft | 470 kts | 249° |
| 2026-05-05 07:01 | 13.90622 | 19.33759 | 35881 ft | 470 kts | 249° |
| 2026-05-05 07:02 | 13.88139 | 19.27538 | 35879 ft | 469 kts | 249° |
| 2026-05-05 07:02 | 13.85655 | 19.21321 | 35872 ft | 469 kts | 249° |
| 2026-05-05 07:03 | 13.83176 | 19.15121 | 35868 ft | 469 kts | 249° |
| 2026-05-05 07:03 | 13.80694 | 19.08921 | 35867 ft | 468 kts | 249° |
| 2026-05-05 07:04 | 13.78215 | 19.02733 | 35862 ft | 468 kts | 249° |
| 2026-05-05 07:04 | 13.75732 | 18.96538 | 35860 ft | 468 kts | 249° |
| 2026-05-05 07:05 | 13.73267 | 18.90393 | 35857 ft | 467 kts | 249° |
| 2026-05-05 07:05 | 13.70782 | 18.84206 | 35852 ft | 468 kts | 249° |
| 2026-05-05 07:06 | 13.68296 | 18.78019 | 35852 ft | 468 kts | 249° |
| 2026-05-05 07:06 | 13.65822 | 18.71870 | 35860 ft | 467 kts | 249° |
| 2026-05-05 07:07 | 13.63334 | 18.65688 | 35858 ft | 467 kts | 249° |
| 2026-05-05 07:07 | 13.60846 | 18.59514 | 35858 ft | 467 kts | 249° |
| 2026-05-05 07:08 | 13.58363 | 18.53356 | 35856 ft | 467 kts | 249° |
| 2026-05-05 07:08 | 13.55872 | 18.47182 | 35855 ft | 467 kts | 249° |
| 2026-05-05 07:09 | 13.53383 | 18.41021 | 35850 ft | 467 kts | 249° |
| 2026-05-05 07:09 | 13.50894 | 18.34862 | 35826 ft | 467 kts | 249° |
| 2026-05-05 07:10 | 13.48395 | 18.28685 | 35833 ft | 469 kts | 249° |
| 2026-05-05 07:10 | 13.45889 | 18.22493 | 35842 ft | 470 kts | 249° |
| 2026-05-05 07:11 | 13.43391 | 18.16329 | 35852 ft | 471 kts | 249° |
| 2026-05-05 07:11 | 13.40836 | 18.10123 | 35858 ft | 472 kts | 248° |
| 2026-05-05 07:12 | 13.38243 | 18.03922 | 35853 ft | 472 kts | 248° |
| 2026-05-05 07:12 | 13.35657 | 17.97723 | 35854 ft | 472 kts | 248° |
| 2026-05-05 07:13 | 13.33069 | 17.91516 | 35850 ft | 472 kts | 248° |
| 2026-05-05 07:13 | 13.30504 | 17.85366 | 35851 ft | 472 kts | 248° |
| 2026-05-05 07:14 | 13.27920 | 17.79174 | 35846 ft | 471 kts | 248° |
| 2026-05-05 07:14 | 13.25338 | 17.72995 | 35841 ft | 471 kts | 248° |
| 2026-05-05 07:15 | 13.22754 | 17.66814 | 35843 ft | 470 kts | 248° |
| 2026-05-05 07:15 | 13.20170 | 17.60637 | 35803 ft | 472 kts | 248° |
| 2026-05-05 07:16 | 13.17574 | 17.54437 | 35814 ft | 473 kts | 248° |
| 2026-05-05 07:16 | 13.14971 | 17.48227 | 35824 ft | 474 kts | 248° |
| 2026-05-05 07:17 | 13.12377 | 17.42042 | 35834 ft | 476 kts | 248° |
| 2026-05-05 07:17 | 13.09775 | 17.35792 | 35847 ft | 476 kts | 249° |
| 2026-05-05 07:18 | 13.07221 | 17.29477 | 35854 ft | 477 kts | 249° |
| 2026-05-05 07:18 | 13.04692 | 17.23234 | 35856 ft | 476 kts | 249° |
| 2026-05-05 07:19 | 13.02143 | 17.16970 | 35851 ft | 476 kts | 249° |
| 2026-05-05 07:19 | 12.99590 | 17.10704 | 35846 ft | 475 kts | 249° |
| 2026-05-05 07:20 | 12.97039 | 17.04451 | 35841 ft | 475 kts | 249° |
| 2026-05-05 07:20 | 12.94495 | 16.98217 | 35838 ft | 474 kts | 249° |
| 2026-05-05 07:21 | 12.91948 | 16.91981 | 35820 ft | 474 kts | 248° |
| 2026-05-05 07:21 | 12.89392 | 16.85729 | 35818 ft | 475 kts | 248° |
| 2026-05-05 07:22 | 12.86834 | 16.79477 | 35825 ft | 476 kts | 248° |
| 2026-05-05 07:22 | 12.84272 | 16.73218 | 35833 ft | 477 kts | 248° |
| 2026-05-05 07:23 | 12.81716 | 16.66983 | 35849 ft | 477 kts | 248° |
| 2026-05-05 07:23 | 12.79143 | 16.60708 | 35851 ft | 478 kts | 248° |
| 2026-05-05 07:24 | 12.76568 | 16.54434 | 35852 ft | 478 kts | 248° |
| 2026-05-05 07:24 | 12.73989 | 16.48153 | 35850 ft | 477 kts | 248° |
| 2026-05-05 07:25 | 12.71413 | 16.41888 | 35849 ft | 477 kts | 248° |
| 2026-05-05 07:25 | 12.68839 | 16.35629 | 35848 ft | 476 kts | 248° |
| 2026-05-05 07:26 | 12.66261 | 16.29367 | 35848 ft | 476 kts | 248° |
| 2026-05-05 07:26 | 12.63703 | 16.23158 | 35844 ft | 476 kts | 248° |
| 2026-05-05 07:27 | 12.61127 | 16.16911 | 35825 ft | 476 kts | 248° |
| 2026-05-05 07:27 | 12.58546 | 16.10655 | 35831 ft | 477 kts | 248° |
| 2026-05-05 07:28 | 12.55960 | 16.04393 | 35834 ft | 478 kts | 248° |
| 2026-05-05 07:28 | 12.53367 | 15.98120 | 35839 ft | 479 kts | 248° |
| 2026-05-05 07:29 | 12.50771 | 15.91842 | 35848 ft | 480 kts | 248° |
| 2026-05-05 07:29 | 12.48170 | 15.85556 | 35852 ft | 480 kts | 248° |
| 2026-05-05 07:30 | 12.45559 | 15.79253 | 35856 ft | 480 kts | 248° |
| 2026-05-05 07:30 | 12.41645 | 15.69813 | 35855 ft | 480 kts | 248° |
| 2026-05-05 07:31 | 12.39049 | 15.63557 | 35852 ft | 480 kts | 248° |
| 2026-05-05 07:31 | 12.36440 | 15.57275 | 35850 ft | 480 kts | 248° |
| 2026-05-05 07:32 | 12.33826 | 15.50986 | 35847 ft | 479 kts | 248° |
| 2026-05-05 07:32 | 12.31217 | 15.44713 | 35816 ft | 480 kts | 248° |
| 2026-05-05 07:33 | 12.28597 | 15.38417 | 35823 ft | 481 kts | 248° |
| 2026-05-05 07:33 | 12.25987 | 15.32152 | 35835 ft | 483 kts | 248° |
| 2026-05-05 07:34 | 12.23350 | 15.25827 | 35849 ft | 484 kts | 248° |
| 2026-05-05 07:34 | 12.20708 | 15.19494 | 35860 ft | 484 kts | 248° |
| 2026-05-05 07:35 | 12.18063 | 15.13158 | 35868 ft | 485 kts | 248° |
| 2026-05-05 07:35 | 12.15434 | 15.06820 | 35865 ft | 484 kts | 250° |
| 2026-05-05 07:36 | 12.13687 | 15.00199 | 35864 ft | 481 kts | 262° |
| 2026-05-05 07:36 | 12.12964 | 14.94564 | 35843 ft | 481 kts | 263° |
| 2026-05-05 07:37 | 12.12071 | 14.87793 | 35852 ft | 480 kts | 263° |
| 2026-05-05 07:37 | 12.11033 | 14.79944 | 35844 ft | 479 kts | 263° |
| 2026-05-05 07:38 | 12.10287 | 14.74288 | 35841 ft | 479 kts | 263° |
| 2026-05-05 07:38 | 12.09403 | 14.67590 | 35837 ft | 478 kts | 263° |
| 2026-05-05 07:39 | 12.08508 | 14.60858 | 35836 ft | 478 kts | 263° |
| 2026-05-05 07:39 | 12.07565 | 14.54118 | 35839 ft | 478 kts | 263° |
| 2026-05-05 07:40 | 12.06622 | 14.47394 | 35848 ft | 478 kts | 263° |
| 2026-05-05 07:40 | 12.05681 | 14.40659 | 35851 ft | 479 kts | 263° |
| 2026-05-05 07:41 | 12.04739 | 14.33926 | 35854 ft | 479 kts | 263° |
| 2026-05-05 07:41 | 12.03800 | 14.27228 | 35855 ft | 479 kts | 263° |
| 2026-05-05 07:42 | 12.02852 | 14.20480 | 35838 ft | 480 kts | 263° |
| 2026-05-05 07:42 | 12.01903 | 14.13729 | 35852 ft | 480 kts | 263° |
| 2026-05-05 07:43 | 12.00951 | 14.06969 | 35859 ft | 481 kts | 263° |
| 2026-05-05 07:43 | 11.99996 | 14.00205 | 35864 ft | 482 kts | 263° |
| 2026-05-05 07:44 | 11.99038 | 13.93431 | 35864 ft | 482 kts | 263° |
| 2026-05-05 07:44 | 11.98079 | 13.86659 | 35869 ft | 482 kts | 263° |
| 2026-05-05 07:45 | 11.97117 | 13.79880 | 35880 ft | 481 kts | 263° |
| 2026-05-05 07:45 | 11.96162 | 13.73158 | 35874 ft | 481 kts | 263° |
| 2026-05-05 07:46 | 11.95201 | 13.66408 | 35871 ft | 480 kts | 263° |
| 2026-05-05 07:46 | 11.94239 | 13.59665 | 35869 ft | 480 kts | 263° |
| 2026-05-05 07:47 | 11.93276 | 13.52926 | 35865 ft | 479 kts | 263° |
| 2026-05-05 07:47 | 11.92312 | 13.46194 | 35877 ft | 479 kts | 263° |
| 2026-05-05 07:48 | 11.91347 | 13.39464 | 35874 ft | 478 kts | 263° |
| 2026-05-05 07:48 | 11.90382 | 13.32745 | 35872 ft | 478 kts | 263° |
| 2026-05-05 07:49 | 11.89417 | 13.26037 | 35871 ft | 478 kts | 263° |
| 2026-05-05 07:49 | 11.88449 | 13.19323 | 35872 ft | 478 kts | 263° |
| 2026-05-05 07:50 | 11.87370 | 13.12666 | 35877 ft | 479 kts | 258° |
| 2026-05-05 07:50 | 11.85193 | 13.06204 | 35882 ft | 481 kts | 247° |
| 2026-05-05 07:51 | 11.82122 | 13.00158 | 35882 ft | 482 kts | 245° |
| 2026-05-05 07:51 | 11.79022 | 12.94087 | 35879 ft | 482 kts | 245° |
| 2026-05-05 07:52 | 11.75924 | 12.88028 | 35882 ft | 481 kts | 245° |
| 2026-05-05 07:52 | 11.72815 | 12.81960 | 35864 ft | 483 kts | 244° |
| 2026-05-05 07:53 | 11.69697 | 12.75882 | 35875 ft | 484 kts | 244° |
| 2026-05-05 07:53 | 11.66571 | 12.69794 | 35888 ft | 485 kts | 244° |
| 2026-05-05 07:54 | 11.63460 | 12.63736 | 35890 ft | 486 kts | 244° |
| 2026-05-05 07:54 | 11.60329 | 12.57646 | 35906 ft | 486 kts | 244° |
| 2026-05-05 07:55 | 11.57180 | 12.51522 | 35912 ft | 486 kts | 244° |
| 2026-05-05 07:55 | 11.54038 | 12.45417 | 35909 ft | 486 kts | 244° |
| 2026-05-05 07:56 | 11.50981 | 12.39480 | 35902 ft | 486 kts | 244° |
| 2026-05-05 07:56 | 11.47832 | 12.33368 | 35906 ft | 486 kts | 244° |
| 2026-05-05 07:57 | 11.44690 | 12.27274 | 35910 ft | 485 kts | 244° |
| 2026-05-05 07:57 | 11.41549 | 12.21187 | 35906 ft | 485 kts | 244° |
| 2026-05-05 07:58 | 11.38401 | 12.15089 | 35888 ft | 487 kts | 244° |
| 2026-05-05 07:58 | 11.35244 | 12.08976 | 35896 ft | 488 kts | 244° |
| 2026-05-05 07:59 | 11.32079 | 12.02854 | 35904 ft | 489 kts | 244° |
| 2026-05-05 07:59 | 11.28910 | 11.96726 | 35914 ft | 489 kts | 244° |
| 2026-05-05 08:00 | 11.25735 | 11.90591 | 35925 ft | 489 kts | 244° |
| 2026-05-05 08:00 | 11.22558 | 11.84455 | 35921 ft | 489 kts | 244° |
| 2026-05-05 08:01 | 11.19385 | 11.78332 | 35920 ft | 489 kts | 244° |
| 2026-05-05 08:01 | 11.16209 | 11.72206 | 35913 ft | 489 kts | 244° |
| 2026-05-05 08:02 | 11.13038 | 11.66093 | 35916 ft | 488 kts | 244° |
| 2026-05-05 08:02 | 11.09862 | 11.59974 | 35913 ft | 488 kts | 244° |
| 2026-05-05 08:03 | 11.06712 | 11.53909 | 35903 ft | 487 kts | 244° |
| 2026-05-05 08:03 | 11.03546 | 11.47818 | 35899 ft | 487 kts | 244° |
| 2026-05-05 08:04 | 11.00372 | 11.41714 | 35906 ft | 487 kts | 244° |
| 2026-05-05 08:04 | 10.97201 | 11.35620 | 35905 ft | 487 kts | 244° |
| 2026-05-05 08:05 | 10.94021 | 11.29513 | 35901 ft | 488 kts | 244° |
| 2026-05-05 08:05 | 10.90842 | 11.23411 | 35913 ft | 488 kts | 244° |
| 2026-05-05 08:06 | 10.87680 | 11.17345 | 35914 ft | 488 kts | 244° |
| 2026-05-05 08:06 | 10.84496 | 11.11240 | 35914 ft | 488 kts | 244° |
| 2026-05-05 08:07 | 10.81309 | 11.05134 | 35916 ft | 488 kts | 244° |
| 2026-05-05 08:07 | 10.78126 | 10.99038 | 35922 ft | 488 kts | 244° |
| 2026-05-05 08:08 | 10.74934 | 10.92928 | 35917 ft | 488 kts | 244° |
| 2026-05-05 08:08 | 10.71752 | 10.86840 | 35919 ft | 488 kts | 244° |
| 2026-05-05 08:09 | 10.68538 | 10.80738 | 35921 ft | 488 kts | 244° |
| 2026-05-05 08:09 | 10.65327 | 10.74656 | 35923 ft | 488 kts | 244° |
| 2026-05-05 08:10 | 10.62140 | 10.68614 | 35919 ft | 488 kts | 244° |
| 2026-05-05 08:10 | 10.58930 | 10.62532 | 35921 ft | 488 kts | 244° |
| 2026-05-05 08:11 | 10.55718 | 10.56447 | 35922 ft | 488 kts | 243° |
| 2026-05-05 08:11 | 10.52507 | 10.50363 | 35917 ft | 488 kts | 243° |
| 2026-05-05 08:12 | 10.49314 | 10.44317 | 35919 ft | 488 kts | 243° |
| 2026-05-05 08:12 | 10.46099 | 10.38234 | 35919 ft | 488 kts | 243° |
| 2026-05-05 08:13 | 10.42883 | 10.32151 | 35923 ft | 488 kts | 243° |
| 2026-05-05 08:13 | 10.39665 | 10.26067 | 35921 ft | 489 kts | 243° |
| 2026-05-05 08:14 | 10.36447 | 10.19990 | 35917 ft | 489 kts | 243° |
| 2026-05-05 08:14 | 10.33222 | 10.13899 | 35916 ft | 490 kts | 243° |
| 2026-05-05 08:15 | 10.29988 | 10.07798 | 35922 ft | 490 kts | 243° |
| 2026-05-05 08:15 | 10.26767 | 10.01723 | 35926 ft | 491 kts | 243° |
| 2026-05-05 08:16 | 10.23527 | 9.95617 | 35947 ft | 491 kts | 243° |
| 2026-05-05 08:16 | 10.20281 | 9.89503 | 35948 ft | 491 kts | 243° |
| 2026-05-05 08:17 | 10.17035 | 9.83390 | 35950 ft | 491 kts | 243° |
| 2026-05-05 08:17 | 10.13789 | 9.77283 | 35930 ft | 492 kts | 243° |
| 2026-05-05 08:18 | 10.10538 | 9.71169 | 35933 ft | 492 kts | 243° |
| 2026-05-05 08:18 | 10.07288 | 9.65059 | 35936 ft | 492 kts | 243° |
| 2026-05-05 08:19 | 10.04037 | 9.58951 | 35934 ft | 492 kts | 243° |
| 2026-05-05 08:19 | 10.00798 | 9.52870 | 35944 ft | 492 kts | 243° |
| 2026-05-05 08:20 | 9.97541 | 9.46759 | 35951 ft | 493 kts | 243° |
| 2026-05-05 08:20 | 9.94277 | 9.40638 | 35948 ft | 493 kts | 243° |
| 2026-05-05 08:21 | 9.91015 | 9.34523 | 35964 ft | 493 kts | 243° |
| 2026-05-05 08:21 | 9.87745 | 9.28396 | 35967 ft | 493 kts | 243° |
| 2026-05-05 08:22 | 9.84487 | 9.22283 | 35978 ft | 493 kts | 243° |
| 2026-05-05 08:22 | 9.81781 | 9.17201 | 35984 ft | 493 kts | 243° |
| 2026-05-05 08:23 | 9.77985 | 9.10076 | 35983 ft | 493 kts | 243° |
| 2026-05-05 08:23 | 9.74730 | 9.03970 | 35990 ft | 493 kts | 243° |
| 2026-05-05 08:24 | 9.72006 | 8.98865 | 35987 ft | 494 kts | 243° |
| 2026-05-05 08:24 | 9.68738 | 8.92741 | 35996 ft | 494 kts | 243° |
| 2026-05-05 08:25 | 9.65548 | 8.86576 | 36017 ft | 493 kts | 248° |
| 2026-05-05 08:25 | 9.63412 | 8.79981 | 36016 ft | 492 kts | 259° |
| 2026-05-05 08:26 | 9.62156 | 8.73202 | 36012 ft | 492 kts | 260° |
| 2026-05-05 08:26 | 9.60869 | 8.66381 | 35985 ft | 493 kts | 260° |
| 2026-05-05 08:27 | 9.59581 | 8.59542 | 35984 ft | 494 kts | 260° |
| 2026-05-05 08:27 | 9.58291 | 8.52689 | 36003 ft | 496 kts | 260° |
| 2026-05-05 08:28 | 9.57643 | 8.49246 | 36268 ft | 498 kts | 260° |
| 2026-05-05 08:28 | 9.56996 | 8.45813 | 36801 ft | 495 kts | 260° |
| 2026-05-05 08:28 | 9.56352 | 8.42398 | 37312 ft | 492 kts | 260° |
| 2026-05-05 08:28 | 9.55711 | 8.38998 | 37741 ft | 491 kts | 260° |
| 2026-05-05 08:29 | 9.55066 | 8.35581 | 37964 ft | 494 kts | 260° |
| 2026-05-05 08:29 | 9.54426 | 8.32189 | 37975 ft | 486 kts | 259° |
| 2026-05-05 08:30 | 9.52517 | 8.22092 | 37977 ft | 487 kts | 259° |
| 2026-05-05 08:30 | 9.51239 | 8.15380 | 37974 ft | 488 kts | 259° |
| 2026-05-05 08:31 | 9.49947 | 8.08645 | 37976 ft | 487 kts | 259° |
| 2026-05-05 08:31 | 9.48654 | 8.01897 | 37984 ft | 487 kts | 259° |
| 2026-05-05 08:32 | 9.47363 | 7.95166 | 37959 ft | 485 kts | 259° |
| 2026-05-05 08:32 | 9.46076 | 7.88457 | 37958 ft | 484 kts | 259° |
| 2026-05-05 08:33 | 9.44799 | 7.81813 | 37947 ft | 483 kts | 259° |
| 2026-05-05 08:33 | 9.43520 | 7.75163 | 37930 ft | 482 kts | 259° |
| 2026-05-05 08:34 | 9.42232 | 7.68476 | 37913 ft | 482 kts | 259° |
| 2026-05-05 08:34 | 9.40951 | 7.61827 | 37916 ft | 481 kts | 259° |
| 2026-05-05 08:35 | 9.39667 | 7.55175 | 37931 ft | 482 kts | 259° |
| 2026-05-05 08:35 | 9.38379 | 7.48504 | 37947 ft | 482 kts | 259° |
| 2026-05-05 08:36 | 9.37085 | 7.41815 | 37939 ft | 485 kts | 259° |
| 2026-05-05 08:36 | 9.35518 | 7.35225 | 37950 ft | 487 kts | 249° |
| 2026-05-05 08:37 | 9.32071 | 7.29300 | 37961 ft | 490 kts | 230° |
| 2026-05-05 08:37 | 9.27097 | 7.24567 | 37967 ft | 493 kts | 222° |
| 2026-05-05 08:38 | 9.21953 | 7.19956 | 37979 ft | 494 kts | 222° |
| 2026-05-05 08:38 | 9.16809 | 7.15341 | 37970 ft | 494 kts | 222° |
| 2026-05-05 08:39 | 9.11689 | 7.10758 | 37970 ft | 494 kts | 222° |
| 2026-05-05 08:39 | 9.06542 | 7.06153 | 37970 ft | 494 kts | 222° |
| 2026-05-05 08:40 | 9.01397 | 7.01552 | 37959 ft | 493 kts | 222° |
| 2026-05-05 08:40 | 8.96262 | 6.96962 | 37946 ft | 492 kts | 222° |
| 2026-05-05 08:41 | 8.91130 | 6.92377 | 37933 ft | 492 kts | 222° |
| 2026-05-05 08:41 | 8.86010 | 6.87805 | 37935 ft | 491 kts | 222° |
| 2026-05-05 08:42 | 8.80891 | 6.83235 | 37929 ft | 491 kts | 222° |
| 2026-05-05 08:42 | 8.75757 | 6.78653 | 37916 ft | 492 kts | 222° |
| 2026-05-05 08:43 | 8.70625 | 6.74074 | 37918 ft | 493 kts | 222° |
| 2026-05-05 08:43 | 8.65476 | 6.69482 | 37929 ft | 493 kts | 222° |
| 2026-05-05 08:44 | 8.60316 | 6.64883 | 37930 ft | 494 kts | 222° |
| 2026-05-05 08:44 | 8.55192 | 6.60317 | 37942 ft | 495 kts | 222° |
| 2026-05-05 08:45 | 8.50010 | 6.55701 | 37947 ft | 496 kts | 222° |
| 2026-05-05 08:45 | 8.44839 | 6.51097 | 37947 ft | 496 kts | 222° |
| 2026-05-05 08:46 | 8.39986 | 6.46154 | 37949 ft | 495 kts | 232° |
| 2026-05-05 08:46 | 8.36126 | 6.40479 | 37952 ft | 493 kts | 242° |
| 2026-05-05 08:47 | 8.32897 | 6.34367 | 37944 ft | 493 kts | 242° |
| 2026-05-05 08:47 | 8.29674 | 6.28322 | 37948 ft | 492 kts | 243° |
| 2026-05-05 08:48 | 8.26429 | 6.22231 | 37949 ft | 492 kts | 242° |
| 2026-05-05 08:48 | 8.23188 | 6.16141 | 37950 ft | 492 kts | 242° |
| 2026-05-05 08:49 | 8.19945 | 6.10051 | 37947 ft | 492 kts | 242° |
| 2026-05-05 08:49 | 8.16703 | 6.03966 | 37957 ft | 492 kts | 242° |
| 2026-05-05 08:50 | 8.13458 | 5.97877 | 37968 ft | 493 kts | 242° |
| 2026-05-05 08:50 | 8.10204 | 5.91774 | 37965 ft | 493 kts | 242° |
| 2026-05-05 08:51 | 8.06948 | 5.85669 | 37968 ft | 493 kts | 242° |
| 2026-05-05 08:51 | 8.03717 | 5.79615 | 37974 ft | 493 kts | 242° |
| 2026-05-05 08:52 | 8.00457 | 5.73510 | 37979 ft | 493 kts | 242° |
| 2026-05-05 08:52 | 7.97203 | 5.67418 | 37977 ft | 493 kts | 242° |
| 2026-05-05 08:53 | 7.93939 | 5.61314 | 37987 ft | 493 kts | 242° |
| 2026-05-05 08:53 | 7.90684 | 5.55228 | 37982 ft | 493 kts | 242° |
| 2026-05-05 08:54 | 7.87441 | 5.49167 | 37982 ft | 493 kts | 242° |
| 2026-05-05 08:54 | 7.84215 | 5.43142 | 37989 ft | 493 kts | 242° |
| 2026-05-05 08:55 | 7.80951 | 5.37046 | 37988 ft | 494 kts | 242° |
| 2026-05-05 08:55 | 7.77682 | 5.30945 | 37999 ft | 494 kts | 242° |
| 2026-05-05 08:56 | 7.74417 | 5.24852 | 38003 ft | 493 kts | 242° |
| 2026-05-05 08:56 | 7.71155 | 5.18769 | 38003 ft | 493 kts | 242° |
| 2026-05-05 08:57 | 7.67909 | 5.12718 | 37996 ft | 493 kts | 242° |
| 2026-05-05 08:57 | 7.64645 | 5.06636 | 37999 ft | 493 kts | 242° |
| 2026-05-05 08:58 | 7.61391 | 5.00575 | 38000 ft | 493 kts | 242° |
| 2026-05-05 08:58 | 7.58116 | 4.94478 | 37995 ft | 493 kts | 242° |
| 2026-05-05 08:59 | 7.54853 | 4.88406 | 37988 ft | 493 kts | 242° |
| 2026-05-05 08:59 | 7.51582 | 4.82321 | 37996 ft | 493 kts | 242° |
| 2026-05-05 09:00 | 7.48313 | 4.76243 | 37999 ft | 493 kts | 242° |
| 2026-05-05 09:00 | 7.45056 | 4.70187 | 38000 ft | 494 kts | 242° |
| 2026-05-05 09:01 | 7.41780 | 4.64101 | 38000 ft | 494 kts | 242° |
| 2026-05-05 09:01 | 7.38505 | 4.58018 | 37997 ft | 494 kts | 242° |
| 2026-05-05 09:02 | 7.35224 | 4.51926 | 37998 ft | 494 kts | 242° |
| 2026-05-05 09:02 | 7.31948 | 4.45847 | 38000 ft | 494 kts | 242° |
| 2026-05-05 09:03 | 7.28667 | 4.39759 | 37997 ft | 494 kts | 242° |
| 2026-05-05 09:03 | 7.25385 | 4.33674 | 37991 ft | 494 kts | 242° |
| 2026-05-05 09:04 | 7.22129 | 4.27638 | 37990 ft | 494 kts | 242° |
| 2026-05-05 09:04 | 7.18846 | 4.21557 | 37996 ft | 494 kts | 242° |
| 2026-05-05 09:05 | 7.15564 | 4.15482 | 38005 ft | 493 kts | 242° |
| 2026-05-05 09:05 | 7.12288 | 4.09418 | 37993 ft | 492 kts | 242° |
| 2026-05-05 09:06 | 7.09019 | 4.03369 | 37992 ft | 492 kts | 242° |
| 2026-05-05 09:06 | 7.05747 | 3.97318 | 37986 ft | 491 kts | 242° |
| 2026-05-05 09:07 | 7.02511 | 3.91337 | 37983 ft | 491 kts | 242° |
| 2026-05-05 09:07 | 6.99232 | 3.85277 | 37980 ft | 491 kts | 242° |
| 2026-05-05 09:08 | 6.95969 | 3.79249 | 37983 ft | 491 kts | 242° |
| 2026-05-05 09:08 | 6.92728 | 3.73264 | 37988 ft | 490 kts | 242° |
| 2026-05-05 09:09 | 6.89460 | 3.67231 | 37995 ft | 490 kts | 242° |
| 2026-05-05 09:09 | 6.86213 | 3.61240 | 37999 ft | 490 kts | 242° |
| 2026-05-05 09:10 | 6.82925 | 3.55174 | 37984 ft | 491 kts | 242° |
| 2026-05-05 09:10 | 6.79657 | 3.49149 | 37991 ft | 490 kts | 242° |
| 2026-05-05 09:11 | 6.76945 | 3.44149 | 37994 ft | 490 kts | 242° |
| 2026-05-05 09:11 | 6.73675 | 3.38124 | 37991 ft | 490 kts | 242° |
| 2026-05-05 09:12 | 6.70104 | 3.31020 | 37978 ft | 489 kts | 249° |
| 2026-05-05 09:12 | 6.68128 | 3.25683 | 37981 ft | 489 kts | 250° |
| 2026-05-05 09:13 | 6.65732 | 3.19274 | 37980 ft | 490 kts | 250° |
| 2026-05-05 09:13 | 6.63331 | 3.12858 | 37975 ft | 490 kts | 250° |
| 2026-05-05 09:14 | 6.60932 | 3.06443 | 37986 ft | 490 kts | 250° |
| 2026-05-05 09:14 | 6.58535 | 3.00031 | 37961 ft | 491 kts | 249° |
| 2026-05-05 09:15 | 6.56120 | 2.93575 | 37963 ft | 492 kts | 249° |
| 2026-05-05 09:15 | 6.53718 | 2.87157 | 37962 ft | 493 kts | 249° |
| 2026-05-05 09:16 | 6.51302 | 2.80704 | 37975 ft | 493 kts | 249° |
| 2026-05-05 09:16 | 6.48897 | 2.74285 | 37971 ft | 494 kts | 250° |
| 2026-05-05 09:17 | 6.46544 | 2.67824 | 37964 ft | 494 kts | 250° |
| 2026-05-05 09:17 | 6.44201 | 2.61334 | 37946 ft | 494 kts | 250° |
| 2026-05-05 09:18 | 6.41848 | 2.54845 | 37941 ft | 494 kts | 250° |
| 2026-05-05 09:18 | 6.39512 | 2.48414 | 37937 ft | 493 kts | 250° |
| 2026-05-05 09:19 | 6.37155 | 2.41930 | 37935 ft | 493 kts | 250° |
| 2026-05-05 09:19 | 6.34449 | 2.35600 | 37936 ft | 493 kts | 244° |
| 2026-05-05 09:20 | 6.31498 | 2.29375 | 37945 ft | 494 kts | 245° |
| 2026-05-05 09:20 | 6.28559 | 2.23147 | 37953 ft | 493 kts | 245° |
| 2026-05-05 09:21 | 6.25619 | 2.16924 | 37945 ft | 492 kts | 245° |
| 2026-05-05 09:21 | 6.22682 | 2.10712 | 37946 ft | 492 kts | 245° |
| 2026-05-05 09:22 | 6.19745 | 2.04507 | 37947 ft | 492 kts | 245° |
| 2026-05-05 09:22 | 6.16804 | 1.98293 | 37943 ft | 491 kts | 245° |
| 2026-05-05 09:23 | 6.13867 | 1.92090 | 37942 ft | 491 kts | 245° |
| 2026-05-05 09:23 | 6.10938 | 1.85907 | 37939 ft | 492 kts | 245° |
| 2026-05-05 09:24 | 6.07996 | 1.79698 | 37947 ft | 492 kts | 245° |
| 2026-05-05 09:24 | 6.05047 | 1.73477 | 37959 ft | 492 kts | 245° |
| 2026-05-05 09:25 | 6.02104 | 1.67270 | 37959 ft | 493 kts | 245° |
| 2026-05-05 09:25 | 5.99172 | 1.61088 | 37953 ft | 493 kts | 245° |
| 2026-05-05 09:26 | 5.96224 | 1.54875 | 37952 ft | 493 kts | 245° |
| 2026-05-05 09:26 | 5.93273 | 1.48658 | 37940 ft | 494 kts | 245° |
| 2026-05-05 09:27 | 5.90314 | 1.42427 | 37946 ft | 494 kts | 245° |
| 2026-05-05 09:27 | 5.87353 | 1.36192 | 37956 ft | 495 kts | 245° |
| 2026-05-05 09:28 | 5.84390 | 1.29956 | 37960 ft | 495 kts | 245° |
| 2026-05-05 09:28 | 5.81428 | 1.23726 | 37959 ft | 496 kts | 245° |
| 2026-05-05 09:29 | 5.78441 | 1.17442 | 37961 ft | 496 kts | 245° |
| 2026-05-05 09:29 | 5.75489 | 1.11236 | 37945 ft | 497 kts | 245° |
| 2026-05-05 09:30 | 5.72508 | 1.04972 | 37944 ft | 498 kts | 245° |
| 2026-05-05 09:30 | 5.69523 | 0.98699 | 37969 ft | 498 kts | 245° |
| 2026-05-05 09:31 | 5.66535 | 0.92424 | 37967 ft | 498 kts | 245° |
| 2026-05-05 09:31 | 5.63547 | 0.86150 | 37961 ft | 498 kts | 245° |
| 2026-05-05 09:32 | 5.60564 | 0.79889 | 37962 ft | 497 kts | 245° |
| 2026-05-05 09:32 | 5.57581 | 0.73630 | 37946 ft | 497 kts | 245° |
| 2026-05-05 09:33 | 5.54591 | 0.67359 | 37943 ft | 497 kts | 245° |
| 2026-05-05 09:33 | 5.51603 | 0.61094 | 37946 ft | 498 kts | 245° |
| 2026-05-05 09:34 | 5.48630 | 0.54860 | 37950 ft | 498 kts | 245° |
| 2026-05-05 09:34 | 5.45636 | 0.48586 | 37954 ft | 499 kts | 245° |
| 2026-05-05 09:35 | 5.42635 | 0.42306 | 37956 ft | 499 kts | 245° |
| 2026-05-05 09:35 | 5.38129 | 0.32880 | 37940 ft | 500 kts | 245° |
| 2026-05-05 09:36 | 5.35123 | 0.26582 | 37947 ft | 501 kts | 245° |
| 2026-05-05 09:36 | 5.32112 | 0.20269 | 37974 ft | 501 kts | 245° |
| 2026-05-05 09:37 | 5.29097 | 0.13955 | 37972 ft | 501 kts | 245° |
| 2026-05-05 09:37 | 5.26087 | 0.07652 | 37965 ft | 501 kts | 245° |
| 2026-05-05 09:38 | 5.23072 | 0.01345 | 37964 ft | 500 kts | 245° |
| 2026-05-05 09:38 | 5.20060 | -0.04945 | 37944 ft | 501 kts | 245° |
| 2026-05-05 09:39 | 5.17041 | -0.11248 | 37949 ft | 501 kts | 245° |
| 2026-05-05 09:39 | 5.14018 | -0.17558 | 37956 ft | 502 kts | 245° |
| 2026-05-05 09:40 | 5.10992 | -0.23874 | 37960 ft | 503 kts | 245° |
| 2026-05-05 09:40 | 5.07961 | -0.30196 | 37965 ft | 503 kts | 245° |
| 2026-05-05 09:41 | 5.04927 | -0.36526 | 37967 ft | 504 kts | 245° |
| 2026-05-05 09:41 | 5.01909 | -0.42817 | 37972 ft | 504 kts | 245° |
| 2026-05-05 09:42 | 4.98875 | -0.49142 | 37974 ft | 504 kts | 245° |
| 2026-05-05 09:42 | 4.95831 | -0.55484 | 37974 ft | 504 kts | 245° |
| 2026-05-05 09:43 | 4.92797 | -0.61804 | 37996 ft | 502 kts | 245° |
| 2026-05-05 09:43 | 4.89772 | -0.68105 | 37982 ft | 501 kts | 245° |
| 2026-05-05 09:44 | 4.86754 | -0.74389 | 37972 ft | 499 kts | 245° |
| 2026-05-05 09:44 | 4.83743 | -0.80655 | 37959 ft | 499 kts | 245° |
| 2026-05-05 09:45 | 4.80734 | -0.86918 | 37955 ft | 498 kts | 245° |
| 2026-05-05 09:45 | 4.77728 | -0.93175 | 37949 ft | 498 kts | 245° |
| 2026-05-05 09:46 | 4.74727 | -0.99423 | 37954 ft | 498 kts | 245° |
| 2026-05-05 09:46 | 4.71720 | -1.05680 | 37955 ft | 498 kts | 245° |
| 2026-05-05 09:47 | 4.68709 | -1.11943 | 37949 ft | 499 kts | 245° |
| 2026-05-05 09:47 | 4.65693 | -1.18216 | 37944 ft | 500 kts | 245° |
| 2026-05-05 09:48 | 4.62672 | -1.24496 | 37943 ft | 501 kts | 245° |
| 2026-05-05 09:48 | 4.59664 | -1.30747 | 37952 ft | 502 kts | 245° |
| 2026-05-05 09:49 | 4.56608 | -1.37098 | 37954 ft | 502 kts | 245° |
| 2026-05-05 09:49 | 4.53571 | -1.43407 | 37952 ft | 503 kts | 245° |
| 2026-05-05 09:50 | 4.50555 | -1.49671 | 37956 ft | 502 kts | 245° |
| 2026-05-05 09:50 | 4.47519 | -1.55974 | 37971 ft | 502 kts | 246° |
| 2026-05-05 09:51 | 4.44490 | -1.62260 | 37963 ft | 500 kts | 245° |
| 2026-05-05 09:51 | 4.41468 | -1.68524 | 37961 ft | 499 kts | 245° |
| 2026-05-05 09:52 | 4.38441 | -1.74796 | 37955 ft | 498 kts | 246° |
| 2026-05-05 09:52 | 4.35426 | -1.81041 | 37947 ft | 498 kts | 245° |
| 2026-05-05 09:53 | 4.32411 | -1.87288 | 37942 ft | 497 kts | 246° |
| 2026-05-05 09:53 | 4.29411 | -1.93513 | 37942 ft | 497 kts | 245° |
| 2026-05-05 09:54 | 4.26400 | -1.99757 | 37958 ft | 497 kts | 245° |
| 2026-05-05 09:54 | 4.23384 | -2.06009 | 37960 ft | 498 kts | 245° |
| 2026-05-05 09:55 | 4.20371 | -2.12253 | 37962 ft | 498 kts | 245° |
| 2026-05-05 09:55 | 4.17352 | -2.18507 | 37954 ft | 499 kts | 245° |
| 2026-05-05 09:56 | 4.14328 | -2.24771 | 37958 ft | 499 kts | 245° |
| 2026-05-05 09:56 | 4.11308 | -2.31027 | 37969 ft | 500 kts | 245° |
| 2026-05-05 09:57 | 4.08283 | -2.37290 | 37973 ft | 500 kts | 245° |
| 2026-05-05 09:57 | 4.05251 | -2.43565 | 37972 ft | 500 kts | 245° |
| 2026-05-05 09:58 | 4.02224 | -2.49829 | 37972 ft | 499 kts | 245° |
| 2026-05-05 09:58 | 3.98988 | -2.55931 | 37968 ft | 501 kts | 238° |
| 2026-05-05 09:59 | 3.95021 | -2.61664 | 37966 ft | 501 kts | 237° |
| 2026-05-05 09:59 | 3.91712 | -2.66481 | 37966 ft | 501 kts | 237° |
| 2026-05-05 10:00 | 3.87766 | -2.72226 | 37972 ft | 500 kts | 237° |
| 2026-05-05 10:00 | 3.83822 | -2.77962 | 37971 ft | 500 kts | 237° |
| 2026-05-05 10:01 | 3.79904 | -2.83659 | 37966 ft | 500 kts | 237° |
| 2026-05-05 10:01 | 3.75956 | -2.89397 | 37949 ft | 501 kts | 237° |
| 2026-05-05 10:02 | 3.71999 | -2.95148 | 37954 ft | 502 kts | 237° |
| 2026-05-05 10:02 | 3.68343 | -3.01081 | 37954 ft | 501 kts | 238° |
| 2026-05-05 10:03 | 3.64343 | -3.06810 | 37965 ft | 503 kts | 236° |
| 2026-05-05 10:03 | 3.60302 | -3.12511 | 37974 ft | 503 kts | 236° |
| 2026-05-05 10:04 | 3.56288 | -3.18256 | 37971 ft | 503 kts | 236° |
| 2026-05-05 10:04 | 3.52321 | -3.23959 | 37976 ft | 502 kts | 236° |
| 2026-05-05 10:05 | 3.48327 | -3.29700 | 37972 ft | 502 kts | 236° |
| 2026-05-05 10:05 | 3.44331 | -3.35441 | 37972 ft | 502 kts | 236° |
| 2026-05-05 10:06 | 3.40338 | -3.41179 | 37964 ft | 501 kts | 236° |
| 2026-05-05 10:06 | 3.36371 | -3.46876 | 37968 ft | 501 kts | 237° |
| 2026-05-05 10:07 | 3.32384 | -3.52602 | 37968 ft | 500 kts | 237° |
| 2026-05-05 10:07 | 3.28405 | -3.58316 | 37965 ft | 500 kts | 237° |
| 2026-05-05 10:08 | 3.24429 | -3.64023 | 37963 ft | 500 kts | 237° |
| 2026-05-05 10:08 | 3.20451 | -3.69733 | 37962 ft | 500 kts | 237° |
| 2026-05-05 10:09 | 3.16508 | -3.75391 | 37967 ft | 500 kts | 237° |
| 2026-05-05 10:09 | 3.12526 | -3.81104 | 37968 ft | 500 kts | 237° |
| 2026-05-05 10:10 | 3.08548 | -3.86811 | 37973 ft | 499 kts | 237° |
| 2026-05-05 10:10 | 3.04573 | -3.92512 | 37973 ft | 499 kts | 237° |
| 2026-05-05 10:11 | 3.00600 | -3.98210 | 37970 ft | 499 kts | 237° |
| 2026-05-05 10:11 | 2.96624 | -4.03911 | 37969 ft | 499 kts | 237° |
| 2026-05-05 10:12 | 2.92646 | -4.09615 | 37970 ft | 499 kts | 237° |
| 2026-05-05 10:12 | 2.88690 | -4.15285 | 37970 ft | 499 kts | 237° |
| 2026-05-05 10:13 | 2.84714 | -4.20984 | 37967 ft | 499 kts | 237° |
| 2026-05-05 10:13 | 2.80741 | -4.26679 | 37968 ft | 499 kts | 237° |
| 2026-05-05 10:14 | 2.76764 | -4.32377 | 37968 ft | 500 kts | 237° |
| 2026-05-05 10:14 | 2.72783 | -4.38082 | 37969 ft | 500 kts | 237° |
| 2026-05-05 10:15 | 2.68806 | -4.43778 | 37973 ft | 500 kts | 237° |
| 2026-05-05 10:15 | 2.64829 | -4.49475 | 37963 ft | 500 kts | 237° |
| 2026-05-05 10:16 | 2.60844 | -4.55182 | 37962 ft | 500 kts | 237° |
| 2026-05-05 10:16 | 2.56862 | -4.60884 | 37967 ft | 501 kts | 237° |
| 2026-05-05 10:17 | 2.52866 | -4.66605 | 37970 ft | 501 kts | 237° |
| 2026-05-05 10:17 | 2.48892 | -4.72294 | 37972 ft | 501 kts | 237° |
| 2026-05-05 10:18 | 2.44899 | -4.78010 | 37975 ft | 501 kts | 237° |
| 2026-05-05 10:18 | 2.40906 | -4.83725 | 37972 ft | 501 kts | 237° |
| 2026-05-05 10:19 | 2.36905 | -4.89451 | 37971 ft | 501 kts | 237° |
| 2026-05-05 10:19 | 2.32941 | -4.95123 | 37971 ft | 501 kts | 237° |
| 2026-05-05 10:20 | 2.28951 | -5.00832 | 37974 ft | 501 kts | 237° |
| 2026-05-05 10:20 | 2.24965 | -5.06535 | 37970 ft | 500 kts | 236° |
| 2026-05-05 10:21 | 2.20972 | -5.12246 | 37968 ft | 500 kts | 236° |
| 2026-05-05 10:21 | 2.16985 | -5.17949 | 37967 ft | 500 kts | 236° |
| 2026-05-05 10:22 | 2.13003 | -5.23642 | 37963 ft | 500 kts | 236° |
| 2026-05-05 10:22 | 2.09017 | -5.29342 | 37963 ft | 500 kts | 236° |
| 2026-05-05 10:23 | 2.05033 | -5.35039 | 37965 ft | 500 kts | 236° |
| 2026-05-05 10:23 | 2.01049 | -5.40736 | 37967 ft | 500 kts | 236° |
| 2026-05-05 10:24 | 1.97069 | -5.46425 | 37964 ft | 500 kts | 236° |
| 2026-05-05 10:24 | 1.93101 | -5.52097 | 37966 ft | 500 kts | 236° |
| 2026-05-05 10:25 | 1.89114 | -5.57796 | 37958 ft | 500 kts | 236° |
| 2026-05-05 10:25 | 1.85116 | -5.63509 | 37951 ft | 501 kts | 236° |
| 2026-05-05 10:26 | 1.81114 | -5.69228 | 37961 ft | 502 kts | 236° |
| 2026-05-05 10:26 | 1.77107 | -5.74954 | 37966 ft | 503 kts | 236° |
| 2026-05-05 10:27 | 1.73103 | -5.80674 | 37967 ft | 503 kts | 236° |
| 2026-05-05 10:27 | 1.69114 | -5.86373 | 37973 ft | 504 kts | 236° |
| 2026-05-05 10:28 | 1.65093 | -5.92117 | 37971 ft | 504 kts | 236° |
| 2026-05-05 10:28 | 1.61070 | -5.97863 | 37976 ft | 503 kts | 236° |
| 2026-05-05 10:29 | 1.57050 | -6.03605 | 37972 ft | 503 kts | 236° |
| 2026-05-05 10:29 | 1.53035 | -6.09338 | 37970 ft | 503 kts | 236° |
| 2026-05-05 10:30 | 1.49018 | -6.15075 | 37945 ft | 504 kts | 236° |
| 2026-05-05 10:30 | 1.45020 | -6.20785 | 37955 ft | 505 kts | 236° |
| 2026-05-05 10:31 | 1.40990 | -6.26538 | 37958 ft | 505 kts | 236° |
| 2026-05-05 10:31 | 1.36957 | -6.32297 | 37966 ft | 506 kts | 236° |
| 2026-05-05 10:32 | 1.32915 | -6.38067 | 37967 ft | 507 kts | 236° |
| 2026-05-05 10:32 | 1.28866 | -6.43848 | 37971 ft | 507 kts | 236° |
| 2026-05-05 10:33 | 1.24821 | -6.49621 | 37965 ft | 507 kts | 236° |
| 2026-05-05 10:33 | 1.20773 | -6.55400 | 37969 ft | 507 kts | 236° |
| 2026-05-05 10:34 | 1.16751 | -6.61140 | 37974 ft | 507 kts | 236° |
| 2026-05-05 10:34 | 1.12700 | -6.66923 | 37967 ft | 507 kts | 235° |
| 2026-05-05 10:35 | 1.08653 | -6.72699 | 37961 ft | 508 kts | 235° |
| 2026-05-05 10:35 | 1.04597 | -6.78486 | 37959 ft | 508 kts | 235° |
| 2026-05-05 10:36 | 1.00547 | -6.84265 | 37959 ft | 508 kts | 235° |
| 2026-05-05 10:36 | 0.96490 | -6.90054 | 37962 ft | 508 kts | 235° |
| 2026-05-05 10:37 | 0.92428 | -6.95850 | 37968 ft | 508 kts | 235° |
| 2026-05-05 10:37 | 0.88397 | -7.01602 | 37970 ft | 508 kts | 235° |
| 2026-05-05 10:38 | 0.84337 | -7.07395 | 37965 ft | 508 kts | 235° |
| 2026-05-05 10:38 | 0.80275 | -7.13189 | 37960 ft | 508 kts | 235° |
| 2026-05-05 10:39 | 0.76221 | -7.18973 | 37963 ft | 508 kts | 235° |
| 2026-05-05 10:39 | 0.72185 | -7.24730 | 37959 ft | 509 kts | 235° |
| 2026-05-05 10:40 | 0.68124 | -7.30523 | 37966 ft | 509 kts | 235° |
| 2026-05-05 10:40 | 0.64053 | -7.36329 | 37966 ft | 509 kts | 235° |
| 2026-05-05 10:41 | 0.59999 | -7.42113 | 37966 ft | 510 kts | 235° |
| 2026-05-05 10:41 | 0.55918 | -7.47934 | 37963 ft | 510 kts | 235° |
| 2026-05-05 10:42 | 0.49815 | -7.56639 | 37969 ft | 510 kts | 235° |
| 2026-05-05 10:43 | 0.45743 | -7.62447 | 37965 ft | 510 kts | 234° |
| 2026-05-05 10:43 | 0.41669 | -7.68257 | 37966 ft | 510 kts | 234° |
| 2026-05-05 10:44 | 0.37633 | -7.74013 | 37962 ft | 510 kts | 234° |
| 2026-05-05 10:44 | 0.33567 | -7.79811 | 37962 ft | 510 kts | 234° |
| 2026-05-05 10:45 | 0.29491 | -7.85624 | 37968 ft | 510 kts | 234° |
| 2026-05-05 10:45 | 0.25410 | -7.91444 | 37967 ft | 510 kts | 234° |
| 2026-05-05 10:46 | 0.21335 | -7.97255 | 37966 ft | 510 kts | 234° |
| 2026-05-05 10:46 | 0.17265 | -8.03060 | 37963 ft | 510 kts | 234° |
| 2026-05-05 10:47 | 0.13217 | -8.08834 | 37968 ft | 510 kts | 234° |
| 2026-05-05 10:47 | 0.09136 | -8.14653 | 37966 ft | 510 kts | 234° |
| 2026-05-05 10:48 | 0.05068 | -8.20454 | 37965 ft | 510 kts | 234° |
| 2026-05-05 10:48 | 0.01682 | -8.25283 | 37965 ft | 510 kts | 234° |
| 2026-05-05 10:49 | -0.02390 | -8.31089 | 37959 ft | 510 kts | 234° |
| 2026-05-05 10:49 | -0.06463 | -8.36898 | 37961 ft | 511 kts | 234° |
| 2026-05-05 10:50 | -0.10544 | -8.42717 | 37968 ft | 511 kts | 234° |
| 2026-05-05 10:50 | -0.14620 | -8.48531 | 37973 ft | 511 kts | 234° |
| 2026-05-05 10:51 | -0.18703 | -8.54353 | 37969 ft | 511 kts | 234° |
| 2026-05-05 10:51 | -0.22760 | -8.60139 | 37969 ft | 511 kts | 234° |
| 2026-05-05 10:52 | -0.26829 | -8.65942 | 37965 ft | 511 kts | 234° |
| 2026-05-05 10:52 | -0.30920 | -8.71777 | 37968 ft | 511 kts | 234° |
| 2026-05-05 10:53 | -0.35003 | -8.77598 | 37968 ft | 511 kts | 234° |
| 2026-05-05 10:53 | -0.39085 | -8.83421 | 37967 ft | 511 kts | 234° |
| 2026-05-05 10:54 | -0.43166 | -8.89241 | 37966 ft | 511 kts | 234° |
| 2026-05-05 10:54 | -0.47246 | -8.95060 | 37967 ft | 511 kts | 234° |
| 2026-05-05 10:55 | -0.51332 | -9.00888 | 37965 ft | 511 kts | 234° |
| 2026-05-05 10:55 | -0.55413 | -9.06708 | 37966 ft | 511 kts | 234° |
| 2026-05-05 10:56 | -0.59492 | -9.12527 | 37965 ft | 511 kts | 234° |
| 2026-05-05 10:56 | -0.63570 | -9.18344 | 37964 ft | 512 kts | 234° |
| 2026-05-05 10:57 | -0.67652 | -9.24167 | 37966 ft | 512 kts | 234° |
| 2026-05-05 10:57 | -0.71740 | -9.29998 | 37967 ft | 512 kts | 234° |
| 2026-05-05 10:58 | -0.75827 | -9.35828 | 37965 ft | 512 kts | 234° |
| 2026-05-05 10:58 | -0.79892 | -9.41627 | 37959 ft | 512 kts | 235° |
| 2026-05-05 10:59 | -0.83987 | -9.47469 | 37970 ft | 513 kts | 235° |
| 2026-05-05 10:59 | -0.88078 | -9.53306 | 37983 ft | 512 kts | 235° |
| 2026-05-05 11:00 | -0.92161 | -9.59131 | 37984 ft | 511 kts | 235° |
| 2026-05-05 11:00 | -0.96242 | -9.64954 | 37976 ft | 511 kts | 235° |
| 2026-05-05 11:01 | -1.00323 | -9.70778 | 37968 ft | 511 kts | 235° |
| 2026-05-05 11:01 | -1.04376 | -9.76562 | 37970 ft | 511 kts | 235° |
| 2026-05-05 11:02 | -1.08451 | -9.82377 | 37969 ft | 510 kts | 235° |
| 2026-05-05 11:02 | -1.12524 | -9.88190 | 37985 ft | 510 kts | 235° |
| 2026-05-05 11:03 | -1.16582 | -9.93981 | 37992 ft | 508 kts | 234° |
| 2026-05-05 11:03 | -1.20636 | -9.99767 | 37979 ft | 508 kts | 234° |
| 2026-05-05 11:04 | -1.24663 | -10.05515 | 37969 ft | 507 kts | 234° |
| 2026-05-05 11:04 | -1.28704 | -10.11283 | 37967 ft | 507 kts | 234° |
| 2026-05-05 11:05 | -1.32752 | -10.17062 | 37967 ft | 506 kts | 234° |
| 2026-05-05 11:05 | -1.36787 | -10.22823 | 37970 ft | 505 kts | 234° |
| 2026-05-05 11:06 | -1.40824 | -10.28587 | 37960 ft | 506 kts | 234° |
| 2026-05-05 11:06 | -1.44841 | -10.34322 | 37963 ft | 506 kts | 234° |
| 2026-05-05 11:07 | -1.48882 | -10.40093 | 37948 ft | 508 kts | 234° |
| 2026-05-05 11:07 | -1.52931 | -10.45874 | 37958 ft | 508 kts | 235° |
| 2026-05-05 11:08 | -1.56991 | -10.51674 | 37970 ft | 509 kts | 235° |
| 2026-05-05 11:08 | -1.61055 | -10.57479 | 37984 ft | 510 kts | 235° |
| 2026-05-05 11:09 | -1.65132 | -10.63302 | 37973 ft | 512 kts | 235° |
| 2026-05-05 11:09 | -1.69216 | -10.69137 | 37983 ft | 513 kts | 235° |
| 2026-05-05 11:10 | -1.73301 | -10.74972 | 37976 ft | 513 kts | 235° |
| 2026-05-05 11:10 | -1.77395 | -10.80822 | 37988 ft | 513 kts | 235° |
| 2026-05-05 11:11 | -1.81463 | -10.86634 | 37992 ft | 513 kts | 235° |
| 2026-05-05 11:11 | -1.85548 | -10.92472 | 38003 ft | 512 kts | 235° |
| 2026-05-05 11:12 | -1.89631 | -10.98307 | 37993 ft | 512 kts | 235° |
| 2026-05-05 11:12 | -1.93708 | -11.04135 | 37980 ft | 511 kts | 236° |
| 2026-05-05 11:13 | -1.97779 | -11.09953 | 37970 ft | 511 kts | 236° |
| 2026-05-05 11:13 | -2.01845 | -11.15766 | 37978 ft | 510 kts | 236° |
| 2026-05-05 11:14 | -2.05909 | -11.21576 | 37975 ft | 509 kts | 236° |
| 2026-05-05 11:14 | -2.09970 | -11.27384 | 37982 ft | 509 kts | 236° |
| 2026-05-05 11:15 | -2.14031 | -11.33190 | 37974 ft | 509 kts | 236° |
| 2026-05-05 11:15 | -2.18051 | -11.38940 | 37986 ft | 508 kts | 236° |
| 2026-05-05 11:16 | -2.22093 | -11.44722 | 37969 ft | 508 kts | 236° |
| 2026-05-05 11:16 | -2.26138 | -11.50507 | 37980 ft | 507 kts | 236° |
| 2026-05-05 11:17 | -2.30174 | -11.56282 | 37981 ft | 506 kts | 236° |
| 2026-05-05 11:17 | -2.34208 | -11.62054 | 37986 ft | 505 kts | 236° |
| 2026-05-05 11:18 | -2.38230 | -11.67810 | 37971 ft | 506 kts | 236° |
| 2026-05-05 11:18 | -2.42243 | -11.73552 | 37964 ft | 506 kts | 236° |
| 2026-05-05 11:19 | -2.46267 | -11.79312 | 37971 ft | 506 kts | 236° |
| 2026-05-05 11:19 | -2.50296 | -11.85080 | 37977 ft | 506 kts | 236° |
| 2026-05-05 11:20 | -2.54328 | -11.90852 | 37981 ft | 506 kts | 236° |
| 2026-05-05 11:20 | -2.58369 | -11.96638 | 37986 ft | 506 kts | 236° |
| 2026-05-05 11:21 | -2.62402 | -12.02413 | 37977 ft | 507 kts | 236° |
| 2026-05-05 11:21 | -2.66412 | -12.08156 | 37979 ft | 507 kts | 236° |
| 2026-05-05 11:22 | -2.70447 | -12.13936 | 37986 ft | 507 kts | 237° |
| 2026-05-05 11:22 | -2.74485 | -12.19721 | 37986 ft | 506 kts | 236° |
| 2026-05-05 11:23 | -2.78517 | -12.25499 | 37997 ft | 506 kts | 236° |
| 2026-05-05 11:23 | -2.82546 | -12.31272 | 37980 ft | 506 kts | 237° |
| 2026-05-05 11:24 | -2.86580 | -12.37053 | 37978 ft | 506 kts | 237° |
| 2026-05-05 11:24 | -2.90607 | -12.42825 | 37982 ft | 506 kts | 237° |
| 2026-05-05 11:25 | -2.94633 | -12.48597 | 37986 ft | 505 kts | 237° |
| 2026-05-05 11:25 | -2.98659 | -12.54369 | 37988 ft | 505 kts | 237° |
| 2026-05-05 11:26 | -3.02678 | -12.60134 | 38002 ft | 504 kts | 236° |
| 2026-05-05 11:26 | -3.06689 | -12.65886 | 37988 ft | 503 kts | 237° |
| 2026-05-05 11:27 | -3.10661 | -12.71583 | 37980 ft | 503 kts | 237° |
| 2026-05-05 11:27 | -3.14668 | -12.77331 | 37981 ft | 502 kts | 237° |
| 2026-05-05 11:28 | -3.18662 | -12.83064 | 37985 ft | 501 kts | 237° |
| 2026-05-05 11:28 | -3.22648 | -12.88784 | 37993 ft | 500 kts | 237° |
| 2026-05-05 11:29 | -3.26613 | -12.94475 | 37976 ft | 500 kts | 237° |
| 2026-05-05 11:29 | -3.30594 | -13.00190 | 37977 ft | 500 kts | 237° |
| 2026-05-05 11:30 | -3.34571 | -13.05900 | 37979 ft | 500 kts | 237° |
| 2026-05-05 11:30 | -3.38539 | -13.11597 | 38021 ft | 497 kts | 237° |
| 2026-05-05 11:31 | -3.42487 | -13.17269 | 38018 ft | 496 kts | 237° |
| 2026-05-05 11:31 | -3.46410 | -13.22905 | 38007 ft | 495 kts | 237° |
| 2026-05-05 11:32 | -3.50335 | -13.28544 | 37999 ft | 493 kts | 237° |
| 2026-05-05 11:32 | -3.54265 | -13.34192 | 37992 ft | 492 kts | 237° |
| 2026-05-05 11:33 | -3.58153 | -13.39779 | 37986 ft | 492 kts | 237° |
| 2026-05-05 11:33 | -3.62064 | -13.45402 | 37982 ft | 491 kts | 237° |
| 2026-05-05 11:34 | -3.65966 | -13.51013 | 37980 ft | 490 kts | 237° |
| 2026-05-05 11:34 | -3.69869 | -13.56625 | 37975 ft | 490 kts | 237° |
| 2026-05-05 11:35 | -3.73760 | -13.62219 | 37980 ft | 489 kts | 237° |
| 2026-05-05 11:35 | -3.77652 | -13.67817 | 37976 ft | 489 kts | 237° |
| 2026-05-05 11:36 | -3.81518 | -13.73379 | 37968 ft | 489 kts | 237° |
| 2026-05-05 11:36 | -3.85400 | -13.78965 | 37968 ft | 489 kts | 237° |
| 2026-05-05 11:37 | -3.89280 | -13.84548 | 37968 ft | 488 kts | 237° |
| 2026-05-05 11:37 | -3.92503 | -13.89188 | 37970 ft | 489 kts | 237° |
| 2026-05-05 11:38 | -3.96396 | -13.94794 | 37973 ft | 490 kts | 237° |
| 2026-05-05 11:38 | -4.00269 | -14.00369 | 37979 ft | 491 kts | 237° |
| 2026-05-05 11:39 | -4.04134 | -14.06080 | 37985 ft | 492 kts | 238° |
| 2026-05-05 11:39 | -4.07954 | -14.11782 | 37990 ft | 493 kts | 238° |
| 2026-05-05 11:40 | -4.11762 | -14.17443 | 37998 ft | 494 kts | 238° |
| 2026-05-05 11:40 | -4.15605 | -14.23149 | 37996 ft | 494 kts | 238° |
| 2026-05-05 11:41 | -4.19451 | -14.28859 | 37995 ft | 494 kts | 238° |
| 2026-05-05 11:41 | -4.23295 | -14.34567 | 37994 ft | 494 kts | 238° |
| 2026-05-05 11:42 | -4.27146 | -14.40287 | 37991 ft | 494 kts | 238° |
| 2026-05-05 11:42 | -4.30967 | -14.45965 | 37994 ft | 494 kts | 238° |
| 2026-05-05 11:43 | -4.34806 | -14.51669 | 37996 ft | 493 kts | 238° |
| 2026-05-05 11:43 | -4.38642 | -14.57371 | 37992 ft | 493 kts | 238° |
| 2026-05-05 11:44 | -4.42479 | -14.63075 | 37990 ft | 493 kts | 238° |
| 2026-05-05 11:44 | -4.46307 | -14.68768 | 37993 ft | 492 kts | 238° |
| 2026-05-05 11:45 | -4.50133 | -14.74458 | 37991 ft | 492 kts | 238° |
| 2026-05-05 11:45 | -4.53953 | -14.80143 | 37985 ft | 491 kts | 238° |
| 2026-05-05 11:46 | -4.57779 | -14.85835 | 37987 ft | 491 kts | 238° |
| 2026-05-05 11:46 | -4.61576 | -14.91485 | 37987 ft | 491 kts | 238° |
| 2026-05-05 11:47 | -4.65390 | -14.97164 | 37987 ft | 492 kts | 238° |
| 2026-05-05 11:47 | -4.69211 | -15.02854 | 37984 ft | 492 kts | 238° |
| 2026-05-05 11:48 | -4.74943 | -15.11391 | 37993 ft | 492 kts | 238° |
| 2026-05-05 11:48 | -4.78767 | -15.17089 | 37996 ft | 493 kts | 238° |
| 2026-05-05 11:49 | -4.82596 | -15.22794 | 37992 ft | 493 kts | 238° |
| 2026-05-05 11:49 | -4.86426 | -15.28503 | 37997 ft | 493 kts | 238° |
| 2026-05-05 11:50 | -4.90227 | -15.34170 | 37996 ft | 493 kts | 238° |
| 2026-05-05 11:50 | -4.94054 | -15.39878 | 37992 ft | 493 kts | 238° |
| 2026-05-05 11:51 | -4.97878 | -15.45582 | 37995 ft | 493 kts | 238° |
| 2026-05-05 11:51 | -5.01707 | -15.51294 | 37992 ft | 492 kts | 238° |
| 2026-05-05 11:52 | -5.05532 | -15.57003 | 37998 ft | 492 kts | 238° |
| 2026-05-05 11:52 | -5.09330 | -15.62673 | 37995 ft | 492 kts | 238° |
| 2026-05-05 11:53 | -5.13150 | -15.68377 | 37982 ft | 493 kts | 238° |
| 2026-05-05 11:53 | -5.16970 | -15.74082 | 37997 ft | 493 kts | 238° |
| 2026-05-05 11:54 | -5.20794 | -15.79795 | 37996 ft | 493 kts | 238° |
| 2026-05-05 11:54 | -5.24619 | -15.85509 | 37996 ft | 493 kts | 239° |
| 2026-05-05 11:55 | -5.28441 | -15.91223 | 37998 ft | 493 kts | 238° |
| 2026-05-05 11:55 | -5.32235 | -15.96896 | 37991 ft | 493 kts | 238° |
| 2026-05-05 11:56 | -5.36057 | -16.02610 | 37998 ft | 493 kts | 238° |
| 2026-05-05 11:56 | -5.39878 | -16.08324 | 37997 ft | 493 kts | 238° |
| 2026-05-05 11:57 | -5.43702 | -16.14047 | 38000 ft | 493 kts | 238° |
| 2026-05-05 11:57 | -5.47522 | -16.19764 | 37999 ft | 493 kts | 238° |
| 2026-05-05 11:58 | -5.51340 | -16.25481 | 38014 ft | 492 kts | 237° |
| 2026-05-05 11:58 | -5.55149 | -16.31183 | 38011 ft | 491 kts | 238° |
| 2026-05-05 11:59 | -5.58950 | -16.36876 | 38014 ft | 490 kts | 238° |
| 2026-05-05 11:59 | -5.62750 | -16.42571 | 38010 ft | 490 kts | 238° |
| 2026-05-05 12:00 | -5.66544 | -16.48258 | 38035 ft | 493 kts | 238° |
| 2026-05-05 12:00 | -5.68444 | -16.51104 | 38515 ft | 491 kts | 238° |
| 2026-05-05 12:00 | -5.70347 | -16.53957 | 39010 ft | 489 kts | 238° |
| 2026-05-05 12:01 | -5.72220 | -16.56766 | 39394 ft | 488 kts | 238° |
| 2026-05-05 12:01 | -5.74104 | -16.59591 | 39806 ft | 487 kts | 238° |
| 2026-05-05 12:01 | -5.75999 | -16.62435 | 39982 ft | 491 kts | 237° |
| 2026-05-05 12:01 | -5.77884 | -16.65261 | 40003 ft | 484 kts | 238° |
| 2026-05-05 12:02 | -5.81618 | -16.70863 | 40006 ft | 484 kts | 238° |
| 2026-05-05 12:02 | -5.85359 | -16.76464 | 40002 ft | 480 kts | 238° |
| 2026-05-05 12:03 | -5.89090 | -16.82009 | 40005 ft | 478 kts | 238° |
| 2026-05-05 12:03 | -5.92830 | -16.87573 | 40015 ft | 480 kts | 238° |
| 2026-05-05 12:04 | -5.95926 | -16.92182 | 39986 ft | 478 kts | 238° |